BAW272 KSAN-EGLL
Flight info
| Callsign | BAW272 |
|---|---|
| Flight time | N/A |
| Altitude | 35000 |
| Route | ZZOOO4 MTBAL DCT EED DCT KD45Q DCT KD60U DCT KD78A/N0488F370 DCT KP84C DCT KP90E DCT KP06G DCT DLH Q924 AGLIN DCT 5230N08000W 56N070W DCT LAKES/M085F370 DCT SAVRY DCT 61N050W/M085F390 6130N04000W 61N030W 5930N02000W DCT GOMUP/N0487F390 DCT GINGA DCT KELLY L10 WAL UY53 NUGRA |
| Aircraft | B789/H-SDE1E2E3FGHIJ2J3J4J5M1RWXY/LB1D1 |
Departure
| Time | 2026-05-04 18:26 |
|---|---|
| Airport | San Diego International Airport (KSAN) |
Arrival
| Time | N/A |
|---|---|
| Airport | London Heathrow Airport (EGLL) |
| Time | Latitude | Longitude | Altitude | Speed | Heading |
|---|---|---|---|---|---|
| 2026-05-04 17:04 | 32.73263 | -117.20604 | 30 ft | 0 kts | 180° |
| 2026-05-04 18:11 | 32.73275 | -117.20604 | 29 ft | 4 kts | 183° |
| 2026-05-04 18:11 | 32.73302 | -117.20602 | 28 ft | 4 kts | 182° |
| 2026-05-04 18:11 | 32.73327 | -117.20601 | 28 ft | 4 kts | 177° |
| 2026-05-04 18:11 | 32.73340 | -117.20603 | 27 ft | 4 kts | 122° |
| 2026-05-04 18:12 | 32.73342 | -117.20624 | 26 ft | 4 kts | 85° |
| 2026-05-04 18:12 | 32.73340 | -117.20655 | 24 ft | 3 kts | 90° |
| 2026-05-04 18:12 | 32.73340 | -117.20658 | 25 ft | 1 kts | 90° |
| 2026-05-04 18:15 | 32.73340 | -117.20643 | 26 ft | 3 kts | 90° |
| 2026-05-04 18:15 | 32.73340 | -117.20616 | 27 ft | 4 kts | 88° |
| 2026-05-04 18:16 | 32.73349 | -117.20584 | 28 ft | 5 kts | 61° |
| 2026-05-04 18:16 | 32.73375 | -117.20564 | 28 ft | 6 kts | 15° |
| 2026-05-04 18:16 | 32.73431 | -117.20559 | 27 ft | 10 kts | 0° |
| 2026-05-04 18:17 | 32.73540 | -117.20471 | 27 ft | 11 kts | 50° |
| 2026-05-04 18:17 | 32.73586 | -117.20405 | 29 ft | 9 kts | 58° |
| 2026-05-04 18:17 | 32.73574 | -117.20293 | 28 ft | 8 kts | 103° |
| 2026-05-04 18:18 | 32.73558 | -117.20220 | 29 ft | 10 kts | 107° |
| 2026-05-04 18:18 | 32.73539 | -117.20145 | 31 ft | 10 kts | 106° |
| 2026-05-04 18:18 | 32.73517 | -117.20053 | 30 ft | 13 kts | 105° |
| 2026-05-04 18:18 | 32.73492 | -117.19947 | 31 ft | 14 kts | 105° |
| 2026-05-04 18:19 | 32.73437 | -117.19727 | 31 ft | 14 kts | 106° |
| 2026-05-04 18:19 | 32.73410 | -117.19613 | 32 ft | 14 kts | 106° |
| 2026-05-04 18:19 | 32.73384 | -117.19506 | 32 ft | 13 kts | 106° |
| 2026-05-04 18:20 | 32.73358 | -117.19398 | 31 ft | 14 kts | 106° |
| 2026-05-04 18:20 | 32.73329 | -117.19276 | 29 ft | 16 kts | 106° |
| 2026-05-04 18:20 | 32.73298 | -117.19153 | 30 ft | 15 kts | 107° |
| 2026-05-04 18:20 | 32.73271 | -117.19043 | 31 ft | 13 kts | 105° |
| 2026-05-04 18:21 | 32.73247 | -117.18938 | 32 ft | 13 kts | 106° |
| 2026-05-04 18:21 | 32.73222 | -117.18837 | 33 ft | 13 kts | 106° |
| 2026-05-04 18:21 | 32.73197 | -117.18737 | 31 ft | 13 kts | 106° |
| 2026-05-04 18:21 | 32.73172 | -117.18632 | 34 ft | 14 kts | 106° |
| 2026-05-04 18:22 | 32.73142 | -117.18508 | 31 ft | 17 kts | 106° |
| 2026-05-04 18:22 | 32.73108 | -117.18370 | 31 ft | 17 kts | 106° |
| 2026-05-04 18:22 | 32.73075 | -117.18233 | 30 ft | 18 kts | 106° |
| 2026-05-04 18:22 | 32.73040 | -117.18087 | 28 ft | 19 kts | 105° |
| 2026-05-04 18:23 | 32.73005 | -117.17942 | 27 ft | 18 kts | 106° |
| 2026-05-04 18:23 | 32.72970 | -117.17811 | 31 ft | 14 kts | 108° |
| 2026-05-04 18:23 | 32.72949 | -117.17728 | 28 ft | 9 kts | 102° |
| 2026-05-04 18:23 | 32.72955 | -117.17666 | 28 ft | 6 kts | 70° |
| 2026-05-04 18:24 | 32.72969 | -117.17629 | 29 ft | 4 kts | 60° |
| 2026-05-04 18:24 | 32.72989 | -117.17607 | 30 ft | 4 kts | 28° |
| 2026-05-04 18:24 | 32.73016 | -117.17610 | 30 ft | 5 kts | 333° |
| 2026-05-04 18:24 | 32.73036 | -117.17649 | 30 ft | 6 kts | 286° |
| 2026-05-04 18:25 | 32.73065 | -117.17766 | 28 ft | 37 kts | 286° |
| 2026-05-04 18:25 | 32.73199 | -117.18320 | 31 ft | 103 kts | 286° |
| 2026-05-04 18:25 | 32.73453 | -117.19374 | 32 ft | 161 kts | 286° |
| 2026-05-04 18:25 | 32.73792 | -117.20765 | 544 ft | 174 kts | 286° |
| 2026-05-04 18:26 | 32.74146 | -117.22146 | 1539 ft | 182 kts | 286° |
| 2026-05-04 18:26 | 32.74492 | -117.23633 | 2317 ft | 191 kts | 285° |
| 2026-05-04 18:26 | 32.74849 | -117.25211 | 2836 ft | 208 kts | 285° |
| 2026-05-04 18:26 | 32.75282 | -117.26961 | 3210 ft | 230 kts | 286° |
| 2026-05-04 18:27 | 32.75733 | -117.28786 | 4043 ft | 231 kts | 286° |
| 2026-05-04 18:27 | 32.76178 | -117.30632 | 4887 ft | 233 kts | 286° |
| 2026-05-04 18:27 | 32.76522 | -117.32521 | 5697 ft | 237 kts | 271° |
| 2026-05-04 18:27 | 32.76132 | -117.34424 | 6547 ft | 240 kts | 245° |
| 2026-05-04 18:28 | 32.75017 | -117.35913 | 7335 ft | 247 kts | 216° |
| 2026-05-04 18:28 | 32.73397 | -117.36595 | 8167 ft | 254 kts | 188° |
| 2026-05-04 18:28 | 32.71639 | -117.36211 | 8996 ft | 267 kts | 158° |
| 2026-05-04 18:28 | 32.70206 | -117.34764 | 9852 ft | 278 kts | 134° |
| 2026-05-04 18:29 | 32.68963 | -117.32982 | 10717 ft | 281 kts | 135° |
| 2026-05-04 18:29 | 32.67730 | -117.31166 | 11422 ft | 288 kts | 135° |
| 2026-05-04 18:29 | 32.66455 | -117.29321 | 12179 ft | 290 kts | 136° |
| 2026-05-04 18:29 | 32.65154 | -117.27466 | 12929 ft | 294 kts | 137° |
| 2026-05-04 18:30 | 32.63024 | -117.23206 | 14177 ft | 324 kts | 108° |
| 2026-05-04 18:30 | 32.62697 | -117.20416 | 14133 ft | 359 kts | 100° |
| 2026-05-04 18:30 | 32.62473 | -117.17332 | 14182 ft | 389 kts | 98° |
| 2026-05-04 18:31 | 32.62212 | -117.14026 | 14214 ft | 416 kts | 99° |
| 2026-05-04 18:31 | 32.62204 | -117.10514 | 14632 ft | 432 kts | 83° |
| 2026-05-04 18:31 | 32.62959 | -117.07041 | 15292 ft | 440 kts | 70° |
| 2026-05-04 18:31 | 32.64071 | -117.03619 | 15883 ft | 447 kts | 69° |
| 2026-05-04 18:32 | 32.65216 | -117.00206 | 16519 ft | 453 kts | 69° |
| 2026-05-04 18:32 | 32.66291 | -116.96615 | 17102 ft | 458 kts | 79° |
| 2026-05-04 18:32 | 32.66711 | -116.92922 | 17710 ft | 459 kts | 92° |
| 2026-05-04 18:32 | 32.66794 | -116.89111 | 18352 ft | 464 kts | 92° |
| 2026-05-04 18:33 | 32.66990 | -116.85262 | 18944 ft | 473 kts | 83° |
| 2026-05-04 18:33 | 32.67838 | -116.81459 | 19471 ft | 482 kts | 69° |
| 2026-05-04 18:33 | 32.69358 | -116.77884 | 20055 ft | 488 kts | 56° |
| 2026-05-04 18:33 | 32.71501 | -116.74738 | 20583 ft | 491 kts | 41° |
| 2026-05-04 18:34 | 32.74159 | -116.72210 | 21089 ft | 490 kts | 27° |
| 2026-05-04 18:34 | 32.77188 | -116.70399 | 21590 ft | 487 kts | 17° |
| 2026-05-04 18:34 | 32.80338 | -116.68842 | 22038 ft | 492 kts | 17° |
| 2026-05-04 18:34 | 32.83522 | -116.67298 | 22561 ft | 496 kts | 16° |
| 2026-05-04 18:35 | 32.86698 | -116.65758 | 23008 ft | 502 kts | 17° |
| 2026-05-04 18:35 | 32.89941 | -116.64159 | 23477 ft | 507 kts | 17° |
| 2026-05-04 18:35 | 32.93216 | -116.62541 | 23874 ft | 512 kts | 17° |
| 2026-05-04 18:35 | 32.96517 | -116.60920 | 24272 ft | 515 kts | 17° |
| 2026-05-04 18:36 | 32.99845 | -116.59290 | 24621 ft | 519 kts | 17° |
| 2026-05-04 18:36 | 33.03168 | -116.57554 | 24956 ft | 525 kts | 19° |
| 2026-05-04 18:36 | 33.06521 | -116.55800 | 25289 ft | 527 kts | 18° |
| 2026-05-04 18:36 | 33.09903 | -116.54085 | 25709 ft | 529 kts | 18° |
| 2026-05-04 18:37 | 33.13294 | -116.52322 | 26022 ft | 534 kts | 19° |
| 2026-05-04 18:37 | 33.16707 | -116.50504 | 26376 ft | 538 kts | 19° |
| 2026-05-04 18:37 | 33.20140 | -116.48696 | 26723 ft | 541 kts | 19° |
| 2026-05-04 18:37 | 33.23608 | -116.46895 | 27032 ft | 545 kts | 18° |
| 2026-05-04 18:38 | 33.27089 | -116.45079 | 27380 ft | 549 kts | 19° |
| 2026-05-04 18:38 | 33.30592 | -116.43234 | 27610 ft | 554 kts | 19° |
| 2026-05-04 18:38 | 33.34145 | -116.41357 | 27860 ft | 559 kts | 19° |
| 2026-05-04 18:38 | 33.37599 | -116.39146 | 28178 ft | 568 kts | 31° |
| 2026-05-04 18:39 | 33.40712 | -116.36198 | 28433 ft | 575 kts | 44° |
| 2026-05-04 18:39 | 33.43374 | -116.32606 | 28752 ft | 578 kts | 55° |
| 2026-05-04 18:39 | 33.45709 | -116.28735 | 29027 ft | 582 kts | 56° |
| 2026-05-04 18:39 | 33.48056 | -116.24785 | 29352 ft | 582 kts | 56° |
| 2026-05-04 18:40 | 33.50417 | -116.20813 | 29531 ft | 587 kts | 55° |
| 2026-05-04 18:40 | 33.52819 | -116.16820 | 29812 ft | 590 kts | 55° |
| 2026-05-04 18:40 | 33.55220 | -116.12822 | 30054 ft | 594 kts | 56° |
| 2026-05-04 18:40 | 33.57631 | -116.08771 | 30273 ft | 596 kts | 56° |
| 2026-05-04 18:41 | 33.60056 | -116.04720 | 30495 ft | 599 kts | 52° |
| 2026-05-04 18:41 | 33.62796 | -116.00938 | 30688 ft | 602 kts | 47° |
| 2026-05-04 18:41 | 33.65639 | -115.97216 | 30790 ft | 607 kts | 47° |
| 2026-05-04 18:41 | 33.68467 | -115.93513 | 31037 ft | 608 kts | 47° |
| 2026-05-04 18:42 | 33.71308 | -115.89737 | 31331 ft | 610 kts | 47° |
| 2026-05-04 18:42 | 33.74149 | -115.85942 | 31496 ft | 613 kts | 47° |
| 2026-05-04 18:42 | 33.77019 | -115.82141 | 31688 ft | 615 kts | 46° |
| 2026-05-04 18:42 | 33.79905 | -115.78329 | 31886 ft | 617 kts | 46° |
| 2026-05-04 18:43 | 33.82779 | -115.74506 | 32120 ft | 618 kts | 47° |
| 2026-05-04 18:43 | 33.85658 | -115.70661 | 32369 ft | 618 kts | 46° |
| 2026-05-04 18:43 | 33.88550 | -115.66805 | 32616 ft | 619 kts | 46° |
| 2026-05-04 18:43 | 33.91439 | -115.62960 | 32848 ft | 619 kts | 46° |
| 2026-05-04 18:44 | 33.94313 | -115.59125 | 33253 ft | 616 kts | 46° |
| 2026-05-04 18:44 | 33.96218 | -115.56576 | 33411 ft | 617 kts | 46° |
| 2026-05-04 18:44 | 34.00068 | -115.51420 | 33721 ft | 619 kts | 46° |
| 2026-05-04 18:44 | 34.02920 | -115.47602 | 33976 ft | 619 kts | 46° |
| 2026-05-04 18:45 | 34.05802 | -115.43737 | 34236 ft | 619 kts | 46° |
| 2026-05-04 18:45 | 34.08676 | -115.39877 | 34515 ft | 618 kts | 46° |
| 2026-05-04 18:45 | 34.11545 | -115.36018 | 34852 ft | 614 kts | 46° |
| 2026-05-04 18:46 | 34.17274 | -115.28308 | 34900 ft | 615 kts | 45° |
| 2026-05-04 18:46 | 34.22939 | -115.20661 | 34900 ft | 607 kts | 45° |
| 2026-05-04 18:47 | 34.28570 | -115.13051 | 34884 ft | 608 kts | 45° |
| 2026-05-04 18:47 | 34.34216 | -115.05396 | 34895 ft | 610 kts | 46° |
| 2026-05-04 18:48 | 34.39870 | -114.97717 | 34878 ft | 608 kts | 45° |
| 2026-05-04 18:48 | 34.45473 | -114.90091 | 34873 ft | 605 kts | 45° |
| 2026-05-04 18:49 | 34.51026 | -114.82516 | 34880 ft | 605 kts | 45° |
| 2026-05-04 18:49 | 34.56612 | -114.74879 | 34897 ft | 605 kts | 45° |
| 2026-05-04 18:50 | 34.62193 | -114.67233 | 34916 ft | 605 kts | 46° |
| 2026-05-04 18:50 | 34.67796 | -114.59539 | 34949 ft | 612 kts | 46° |
| 2026-05-04 18:51 | 34.73432 | -114.51781 | 34949 ft | 612 kts | 46° |
| 2026-05-04 18:51 | 34.78918 | -114.43838 | 34914 ft | 614 kts | 50° |
| 2026-05-04 18:52 | 34.84223 | -114.35702 | 34872 ft | 611 kts | 49° |
| 2026-05-04 18:52 | 34.89455 | -114.27624 | 34840 ft | 605 kts | 50° |
| 2026-05-04 18:53 | 34.94686 | -114.19543 | 34822 ft | 607 kts | 49° |
| 2026-05-04 18:53 | 34.99884 | -114.11491 | 34824 ft | 610 kts | 50° |
| 2026-05-04 18:54 | 35.05153 | -114.03308 | 34824 ft | 611 kts | 49° |
| 2026-05-04 18:54 | 35.10366 | -113.95199 | 34799 ft | 605 kts | 49° |
| 2026-05-04 18:55 | 35.15572 | -113.87076 | 34818 ft | 606 kts | 49° |
| 2026-05-04 18:55 | 35.20733 | -113.79008 | 34956 ft | 607 kts | 49° |
| 2026-05-04 18:55 | 35.23333 | -113.74937 | 34949 ft | 608 kts | 50° |
| 2026-05-04 18:56 | 35.28517 | -113.66801 | 34898 ft | 604 kts | 49° |
| 2026-05-04 18:56 | 35.33686 | -113.58676 | 34851 ft | 605 kts | 49° |
| 2026-05-04 18:57 | 35.38882 | -113.50485 | 34818 ft | 611 kts | 50° |
| 2026-05-04 18:57 | 35.44090 | -113.42255 | 34835 ft | 610 kts | 49° |
| 2026-05-04 18:58 | 35.49274 | -113.34045 | 34828 ft | 606 kts | 49° |
| 2026-05-04 18:58 | 35.54435 | -113.25854 | 34830 ft | 606 kts | 49° |
| 2026-05-04 18:59 | 35.58716 | -113.19043 | 34836 ft | 606 kts | 49° |
| 2026-05-04 18:59 | 35.63899 | -113.10779 | 34838 ft | 606 kts | 50° |
| 2026-05-04 19:00 | 35.69006 | -113.02619 | 34853 ft | 607 kts | 49° |
| 2026-05-04 19:00 | 35.74187 | -112.94319 | 34857 ft | 613 kts | 49° |
| 2026-05-04 19:01 | 35.79366 | -112.86001 | 34853 ft | 612 kts | 49° |
| 2026-05-04 19:01 | 35.84543 | -112.77670 | 34852 ft | 612 kts | 49° |
| 2026-05-04 19:02 | 35.89685 | -112.69368 | 34853 ft | 606 kts | 49° |
| 2026-05-04 19:02 | 35.94797 | -112.61105 | 34850 ft | 606 kts | 49° |
| 2026-05-04 19:03 | 35.99883 | -112.52856 | 34854 ft | 607 kts | 49° |
| 2026-05-04 19:03 | 36.05023 | -112.44505 | 34949 ft | 613 kts | 49° |
| 2026-05-04 19:04 | 36.10170 | -112.36116 | 34977 ft | 611 kts | 49° |
| 2026-05-04 19:04 | 36.15287 | -112.27753 | 34973 ft | 607 kts | 49° |
| 2026-05-04 19:05 | 36.20400 | -112.19397 | 34945 ft | 612 kts | 50° |
| 2026-05-04 19:05 | 36.25522 | -112.10980 | 34895 ft | 610 kts | 49° |
| 2026-05-04 19:06 | 36.30604 | -112.02623 | 34844 ft | 605 kts | 49° |
| 2026-05-04 19:06 | 36.35637 | -111.94324 | 34855 ft | 606 kts | 49° |
| 2026-05-04 19:07 | 36.40708 | -111.85937 | 34849 ft | 610 kts | 49° |
| 2026-05-04 19:07 | 36.45783 | -111.77527 | 34835 ft | 606 kts | 49° |
| 2026-05-04 19:08 | 36.50812 | -111.69172 | 34832 ft | 603 kts | 49° |
| 2026-05-04 19:08 | 36.55832 | -111.60813 | 34835 ft | 604 kts | 49° |
| 2026-05-04 19:09 | 36.60863 | -111.52411 | 34851 ft | 604 kts | 49° |
| 2026-05-04 19:09 | 36.65878 | -111.44017 | 34876 ft | 604 kts | 49° |
| 2026-05-04 19:10 | 36.70901 | -111.35590 | 34900 ft | 608 kts | 49° |
| 2026-05-04 19:10 | 36.75904 | -111.27172 | 34901 ft | 607 kts | 49° |
| 2026-05-04 19:11 | 36.80924 | -111.18710 | 34896 ft | 606 kts | 49° |
| 2026-05-04 19:11 | 36.85945 | -111.10218 | 34871 ft | 607 kts | 50° |
| 2026-05-04 19:12 | 36.93443 | -110.97507 | 34832 ft | 605 kts | 50° |
| 2026-05-04 19:13 | 36.98398 | -110.89072 | 34835 ft | 605 kts | 50° |
| 2026-05-04 19:13 | 37.03379 | -110.80583 | 34846 ft | 608 kts | 50° |
| 2026-05-04 19:14 | 37.08388 | -110.72012 | 34833 ft | 608 kts | 50° |
| 2026-05-04 19:14 | 37.13383 | -110.63454 | 34823 ft | 608 kts | 50° |
| 2026-05-04 19:15 | 37.18356 | -110.54906 | 34843 ft | 605 kts | 50° |
| 2026-05-04 19:15 | 37.23311 | -110.46370 | 34827 ft | 609 kts | 50° |
| 2026-05-04 19:16 | 37.28279 | -110.37785 | 34820 ft | 607 kts | 50° |
| 2026-05-04 19:16 | 37.33244 | -110.29189 | 34822 ft | 607 kts | 50° |
| 2026-05-04 19:17 | 37.38208 | -110.20570 | 34831 ft | 609 kts | 50° |
| 2026-05-04 19:17 | 37.43130 | -110.11999 | 34844 ft | 608 kts | 50° |
| 2026-05-04 19:18 | 37.48084 | -110.03354 | 34849 ft | 608 kts | 50° |
| 2026-05-04 19:18 | 37.53298 | -109.95021 | 34849 ft | 605 kts | 45° |
| 2026-05-04 19:19 | 37.58707 | -109.86886 | 34852 ft | 605 kts | 45° |
| 2026-05-04 19:19 | 37.64086 | -109.78722 | 34861 ft | 604 kts | 45° |
| 2026-05-04 19:20 | 37.69462 | -109.70589 | 34857 ft | 599 kts | 45° |
| 2026-05-04 19:20 | 37.74771 | -109.62505 | 34955 ft | 598 kts | 45° |
| 2026-05-04 19:21 | 37.80059 | -109.54455 | 34948 ft | 600 kts | 45° |
| 2026-05-04 19:21 | 37.85374 | -109.46327 | 34905 ft | 599 kts | 45° |
| 2026-05-04 19:22 | 37.90690 | -109.38190 | 34864 ft | 599 kts | 45° |
| 2026-05-04 19:22 | 37.95993 | -109.30042 | 34848 ft | 599 kts | 45° |
| 2026-05-04 19:23 | 38.01270 | -109.21917 | 34842 ft | 593 kts | 45° |
| 2026-05-04 19:23 | 38.06513 | -109.13832 | 34842 ft | 594 kts | 45° |
| 2026-05-04 19:24 | 38.11755 | -109.05715 | 34838 ft | 592 kts | 45° |
| 2026-05-04 19:24 | 38.16938 | -108.97680 | 34829 ft | 592 kts | 45° |
| 2026-05-04 19:25 | 38.22154 | -108.89569 | 34829 ft | 592 kts | 45° |
| 2026-05-04 19:25 | 38.27369 | -108.81440 | 34848 ft | 592 kts | 44° |
| 2026-05-04 19:26 | 38.32534 | -108.73363 | 34832 ft | 585 kts | 44° |
| 2026-05-04 19:26 | 38.37663 | -108.65337 | 34833 ft | 585 kts | 44° |
| 2026-05-04 19:27 | 38.42801 | -108.57265 | 34835 ft | 587 kts | 44° |
| 2026-05-04 19:27 | 38.47939 | -108.49174 | 34832 ft | 586 kts | 44° |
| 2026-05-04 19:28 | 38.53075 | -108.41072 | 34831 ft | 586 kts | 44° |
| 2026-05-04 19:28 | 38.58170 | -108.33000 | 34818 ft | 581 kts | 44° |
| 2026-05-04 19:29 | 38.63204 | -108.25024 | 34846 ft | 579 kts | 44° |
| 2026-05-04 19:29 | 38.68292 | -108.16930 | 34938 ft | 580 kts | 44° |
| 2026-05-04 19:30 | 38.73315 | -108.08922 | 34961 ft | 581 kts | 44° |
| 2026-05-04 19:30 | 38.78370 | -108.00844 | 34962 ft | 581 kts | 44° |
| 2026-05-04 19:31 | 38.83424 | -107.92744 | 34949 ft | 581 kts | 44° |
| 2026-05-04 19:31 | 38.88466 | -107.84645 | 34912 ft | 579 kts | 45° |
| 2026-05-04 19:32 | 38.93462 | -107.76595 | 34814 ft | 574 kts | 45° |
| 2026-05-04 19:32 | 38.98442 | -107.68564 | 34823 ft | 574 kts | 45° |
| 2026-05-04 19:33 | 39.03372 | -107.60578 | 34816 ft | 573 kts | 45° |
| 2026-05-04 19:33 | 39.08331 | -107.52538 | 34819 ft | 573 kts | 45° |
| 2026-05-04 19:34 | 39.13285 | -107.44476 | 34809 ft | 573 kts | 45° |
| 2026-05-04 19:34 | 39.18229 | -107.36414 | 34816 ft | 569 kts | 45° |
| 2026-05-04 19:35 | 39.23088 | -107.28464 | 34811 ft | 563 kts | 45° |
| 2026-05-04 19:35 | 39.27928 | -107.20545 | 34816 ft | 566 kts | 45° |
| 2026-05-04 19:36 | 39.32797 | -107.12534 | 34819 ft | 567 kts | 45° |
| 2026-05-04 19:36 | 39.37668 | -107.04517 | 34898 ft | 567 kts | 45° |
| 2026-05-04 19:37 | 39.42504 | -106.96522 | 34942 ft | 562 kts | 45° |
| 2026-05-04 19:37 | 39.47326 | -106.88550 | 34986 ft | 564 kts | 45° |
| 2026-05-04 19:37 | 39.49750 | -106.84531 | 34856 ft | 569 kts | 46° |
| 2026-05-04 19:38 | 39.52201 | -106.80461 | 34861 ft | 575 kts | 46° |
| 2026-05-04 19:38 | 39.57155 | -106.72214 | 34870 ft | 585 kts | 46° |
| 2026-05-04 19:39 | 39.62149 | -106.63875 | 34873 ft | 582 kts | 46° |
| 2026-05-04 19:39 | 39.67103 | -106.55595 | 34876 ft | 581 kts | 46° |
| 2026-05-04 19:40 | 39.72028 | -106.47332 | 34872 ft | 582 kts | 46° |
| 2026-05-04 19:40 | 39.76963 | -106.39030 | 34865 ft | 576 kts | 46° |
| 2026-05-04 19:41 | 39.81860 | -106.30781 | 34866 ft | 574 kts | 47° |
| 2026-05-04 19:41 | 39.86727 | -106.22549 | 34867 ft | 574 kts | 47° |
| 2026-05-04 19:42 | 39.91596 | -106.14299 | 34869 ft | 573 kts | 47° |
| 2026-05-04 19:42 | 39.96422 | -106.06098 | 34874 ft | 574 kts | 47° |
| 2026-05-04 19:43 | 40.01214 | -105.97765 | 34887 ft | 575 kts | 50° |
| 2026-05-04 19:43 | 40.05887 | -105.89298 | 34869 ft | 571 kts | 49° |
| 2026-05-04 19:43 | 40.08213 | -105.85084 | 35052 ft | 571 kts | 49° |
| 2026-05-04 19:44 | 40.10508 | -105.80849 | 35049 ft | 572 kts | 49° |
| 2026-05-04 19:44 | 40.15130 | -105.72383 | 35001 ft | 573 kts | 49° |
| 2026-05-04 19:45 | 40.18988 | -105.65319 | 34947 ft | 572 kts | 49° |
| 2026-05-04 19:45 | 40.23591 | -105.56827 | 34871 ft | 573 kts | 49° |
| 2026-05-04 19:46 | 40.28218 | -105.48306 | 34809 ft | 573 kts | 49° |
| 2026-05-04 19:46 | 40.32835 | -105.39754 | 34825 ft | 576 kts | 49° |
| 2026-05-04 19:47 | 40.37434 | -105.31230 | 34805 ft | 574 kts | 49° |
| 2026-05-04 19:47 | 40.42038 | -105.22658 | 34838 ft | 574 kts | 49° |
| 2026-05-04 19:48 | 40.46635 | -105.14087 | 34873 ft | 574 kts | 49° |
| 2026-05-04 19:48 | 40.51225 | -105.05501 | 34877 ft | 574 kts | 49° |
| 2026-05-04 19:49 | 40.55813 | -104.96897 | 34760 ft | 574 kts | 49° |
| 2026-05-04 19:49 | 40.60402 | -104.88266 | 34782 ft | 576 kts | 49° |
| 2026-05-04 19:50 | 40.64961 | -104.79664 | 34789 ft | 571 kts | 49° |
| 2026-05-04 19:50 | 40.69518 | -104.71052 | 34783 ft | 573 kts | 49° |
| 2026-05-04 19:51 | 40.74068 | -104.62418 | 34785 ft | 573 kts | 49° |
| 2026-05-04 19:51 | 40.78584 | -104.53833 | 34773 ft | 573 kts | 49° |
| 2026-05-04 19:52 | 40.83116 | -104.45187 | 34784 ft | 572 kts | 49° |
| 2026-05-04 19:52 | 40.87640 | -104.36538 | 34804 ft | 572 kts | 50° |
| 2026-05-04 19:53 | 40.92134 | -104.27914 | 34810 ft | 567 kts | 50° |
| 2026-05-04 19:53 | 40.96615 | -104.19306 | 34828 ft | 568 kts | 50° |
| 2026-05-04 19:54 | 41.01034 | -104.10775 | 34821 ft | 563 kts | 50° |
| 2026-05-04 19:54 | 41.05484 | -104.02180 | 34820 ft | 566 kts | 50° |
| 2026-05-04 19:55 | 41.09925 | -103.93560 | 34840 ft | 566 kts | 50° |
| 2026-05-04 19:55 | 41.14365 | -103.84931 | 34890 ft | 566 kts | 51° |
| 2026-05-04 19:56 | 41.18737 | -103.76393 | 34883 ft | 551 kts | 52° |
| 2026-05-04 19:56 | 41.23051 | -103.67974 | 34884 ft | 553 kts | 52° |
| 2026-05-04 19:57 | 41.27370 | -103.59495 | 34878 ft | 554 kts | 52° |
| 2026-05-04 19:57 | 41.31688 | -103.51009 | 34847 ft | 554 kts | 52° |
| 2026-05-04 19:58 | 41.35993 | -103.42518 | 34819 ft | 552 kts | 52° |
| 2026-05-04 19:58 | 41.40257 | -103.34090 | 34789 ft | 552 kts | 52° |
| 2026-05-04 19:59 | 41.44539 | -103.25600 | 34785 ft | 551 kts | 52° |
| 2026-05-04 19:59 | 41.48799 | -103.17128 | 34780 ft | 550 kts | 52° |
| 2026-05-04 20:00 | 41.53052 | -103.08651 | 34780 ft | 549 kts | 52° |
| 2026-05-04 20:00 | 41.57297 | -103.00163 | 34798 ft | 550 kts | 52° |
| 2026-05-04 20:01 | 41.61543 | -102.91652 | 34803 ft | 551 kts | 52° |
| 2026-05-04 20:01 | 41.65786 | -102.83122 | 34818 ft | 551 kts | 52° |
| 2026-05-04 20:02 | 41.70026 | -102.74573 | 34831 ft | 550 kts | 52° |
| 2026-05-04 20:02 | 41.74198 | -102.66136 | 34831 ft | 546 kts | 52° |
| 2026-05-04 20:03 | 41.78390 | -102.57641 | 34853 ft | 548 kts | 52° |
| 2026-05-04 20:03 | 41.82595 | -102.49089 | 34853 ft | 548 kts | 52° |
| 2026-05-04 20:04 | 41.86788 | -102.40543 | 34877 ft | 548 kts | 53° |
| 2026-05-04 20:04 | 41.90936 | -102.32060 | 34853 ft | 546 kts | 53° |
| 2026-05-04 20:05 | 41.95105 | -102.23515 | 34853 ft | 547 kts | 53° |
| 2026-05-04 20:05 | 41.99267 | -102.14954 | 34856 ft | 544 kts | 53° |
| 2026-05-04 20:06 | 42.03379 | -102.06476 | 34855 ft | 544 kts | 53° |
| 2026-05-04 20:06 | 42.07505 | -101.97944 | 34859 ft | 545 kts | 53° |
| 2026-05-04 20:07 | 42.11631 | -101.89389 | 34855 ft | 543 kts | 53° |
| 2026-05-04 20:07 | 42.15741 | -101.80843 | 34853 ft | 543 kts | 53° |
| 2026-05-04 20:08 | 42.19846 | -101.72282 | 34856 ft | 543 kts | 53° |
| 2026-05-04 20:08 | 42.23948 | -101.63704 | 34861 ft | 544 kts | 53° |
| 2026-05-04 20:09 | 42.28024 | -101.55154 | 34866 ft | 545 kts | 53° |
| 2026-05-04 20:09 | 42.32129 | -101.46518 | 34866 ft | 547 kts | 53° |
| 2026-05-04 20:10 | 42.36233 | -101.37860 | 34867 ft | 546 kts | 53° |
| 2026-05-04 20:10 | 42.40327 | -101.29199 | 34866 ft | 545 kts | 53° |
| 2026-05-04 20:11 | 42.44379 | -101.20603 | 34859 ft | 545 kts | 53° |
| 2026-05-04 20:11 | 42.48452 | -101.11936 | 34868 ft | 545 kts | 53° |
| 2026-05-04 20:12 | 42.52515 | -101.03263 | 34858 ft | 544 kts | 53° |
| 2026-05-04 20:12 | 42.56567 | -100.94593 | 34863 ft | 544 kts | 53° |
| 2026-05-04 20:13 | 42.60589 | -100.85961 | 34860 ft | 545 kts | 53° |
| 2026-05-04 20:13 | 42.64636 | -100.77248 | 34864 ft | 545 kts | 53° |
| 2026-05-04 20:14 | 42.68680 | -100.68516 | 34867 ft | 545 kts | 53° |
| 2026-05-04 20:14 | 42.72714 | -100.59780 | 34867 ft | 545 kts | 54° |
| 2026-05-04 20:15 | 42.76724 | -100.51074 | 34863 ft | 549 kts | 53° |
| 2026-05-04 20:15 | 42.80783 | -100.42227 | 34860 ft | 550 kts | 53° |
| 2026-05-04 20:16 | 42.84836 | -100.33375 | 34864 ft | 550 kts | 53° |
| 2026-05-04 20:16 | 42.88880 | -100.24512 | 34863 ft | 549 kts | 54° |
| 2026-05-04 20:17 | 42.92909 | -100.15657 | 34860 ft | 550 kts | 53° |
| 2026-05-04 20:17 | 42.96910 | -100.06837 | 34857 ft | 550 kts | 54° |
| 2026-05-04 20:18 | 43.01026 | -99.98015 | 34878 ft | 548 kts | 49° |
| 2026-05-04 20:18 | 43.05448 | -99.89457 | 34861 ft | 552 kts | 50° |
| 2026-05-04 20:19 | 43.09862 | -99.80865 | 34862 ft | 552 kts | 50° |
| 2026-05-04 20:19 | 43.14260 | -99.72308 | 34873 ft | 553 kts | 50° |
| 2026-05-04 20:20 | 43.18667 | -99.63681 | 34870 ft | 552 kts | 50° |
| 2026-05-04 20:20 | 43.23087 | -99.55027 | 34870 ft | 553 kts | 50° |
| 2026-05-04 20:21 | 43.27497 | -99.46349 | 34855 ft | 556 kts | 50° |
| 2026-05-04 20:21 | 43.34105 | -99.33310 | 34857 ft | 558 kts | 50° |
| 2026-05-04 20:22 | 43.38531 | -99.24542 | 34860 ft | 557 kts | 50° |
| 2026-05-04 20:22 | 43.42945 | -99.15775 | 34856 ft | 557 kts | 50° |
| 2026-05-04 20:23 | 43.47345 | -99.07007 | 34883 ft | 558 kts | 50° |
| 2026-05-04 20:23 | 43.51762 | -98.98180 | 34851 ft | 560 kts | 50° |
| 2026-05-04 20:24 | 43.56175 | -98.89332 | 34850 ft | 559 kts | 50° |
| 2026-05-04 20:24 | 43.60573 | -98.80492 | 34849 ft | 559 kts | 50° |
| 2026-05-04 20:25 | 43.64963 | -98.71638 | 34863 ft | 559 kts | 50° |
| 2026-05-04 20:25 | 43.69354 | -98.62759 | 34838 ft | 560 kts | 50° |
| 2026-05-04 20:26 | 43.73713 | -98.53911 | 34838 ft | 560 kts | 50° |
| 2026-05-04 20:26 | 43.78095 | -98.44995 | 34832 ft | 560 kts | 50° |
| 2026-05-04 20:27 | 43.82469 | -98.36066 | 34846 ft | 560 kts | 50° |
| 2026-05-04 20:27 | 43.86850 | -98.27098 | 34854 ft | 562 kts | 50° |
| 2026-05-04 20:28 | 43.91199 | -98.18163 | 34857 ft | 562 kts | 50° |
| 2026-05-04 20:28 | 43.95573 | -98.09155 | 34853 ft | 563 kts | 50° |
| 2026-05-04 20:29 | 43.99955 | -98.00105 | 34848 ft | 563 kts | 49° |
| 2026-05-04 20:29 | 44.04518 | -97.91298 | 34842 ft | 563 kts | 49° |
| 2026-05-04 20:30 | 44.09060 | -97.82412 | 34835 ft | 563 kts | 48° |
| 2026-05-04 20:30 | 44.13632 | -97.73563 | 34828 ft | 564 kts | 49° |
| 2026-05-04 20:31 | 44.18178 | -97.64646 | 34816 ft | 565 kts | 49° |
| 2026-05-04 20:31 | 44.22718 | -97.55779 | 34825 ft | 566 kts | 49° |
| 2026-05-04 20:32 | 44.27272 | -97.46811 | 34828 ft | 566 kts | 49° |
| 2026-05-04 20:32 | 44.31833 | -97.37830 | 34829 ft | 566 kts | 49° |
| 2026-05-04 20:33 | 44.36381 | -97.28830 | 34823 ft | 566 kts | 49° |
| 2026-05-04 20:33 | 44.40926 | -97.19820 | 34803 ft | 567 kts | 49° |
| 2026-05-04 20:34 | 44.45436 | -97.10843 | 35151 ft | 566 kts | 49° |
| 2026-05-04 20:34 | 44.47700 | -97.06325 | 35383 ft | 566 kts | 49° |
| 2026-05-04 20:34 | 44.49962 | -97.01811 | 35603 ft | 565 kts | 49° |
| 2026-05-04 20:35 | 44.52218 | -96.97300 | 35827 ft | 565 kts | 49° |
| 2026-05-04 20:35 | 44.54464 | -96.92797 | 36059 ft | 564 kts | 49° |
| 2026-05-04 20:35 | 44.56714 | -96.88279 | 36264 ft | 563 kts | 49° |
| 2026-05-04 20:35 | 44.58956 | -96.83775 | 36501 ft | 563 kts | 49° |
| 2026-05-04 20:36 | 44.61189 | -96.79279 | 36713 ft | 562 kts | 49° |
| 2026-05-04 20:36 | 44.63426 | -96.74769 | 36927 ft | 562 kts | 49° |
| 2026-05-04 20:36 | 44.65657 | -96.70263 | 37160 ft | 561 kts | 49° |
| 2026-05-04 20:36 | 44.67133 | -96.67278 | 37274 ft | 561 kts | 49° |
| 2026-05-04 20:37 | 44.69357 | -96.62775 | 37490 ft | 560 kts | 49° |
| 2026-05-04 20:37 | 44.71578 | -96.58273 | 37706 ft | 560 kts | 49° |
| 2026-05-04 20:37 | 44.73794 | -96.53772 | 37922 ft | 559 kts | 49° |
| 2026-05-04 20:37 | 44.76003 | -96.49277 | 38142 ft | 559 kts | 50° |
| 2026-05-04 20:38 | 44.78931 | -96.43312 | 38408 ft | 558 kts | 50° |
| 2026-05-04 20:38 | 44.80416 | -96.40280 | 38525 ft | 558 kts | 50° |
| 2026-05-04 20:38 | 44.82624 | -96.35769 | 38706 ft | 557 kts | 50° |
| 2026-05-04 20:38 | 44.84817 | -96.31278 | 38788 ft | 558 kts | 50° |
| 2026-05-04 20:39 | 44.89190 | -96.22306 | 38785 ft | 557 kts | 50° |
| 2026-05-04 20:39 | 44.93557 | -96.13315 | 38786 ft | 554 kts | 50° |
| 2026-05-04 20:40 | 44.97911 | -96.04329 | 38785 ft | 554 kts | 50° |
| 2026-05-04 20:40 | 45.02360 | -95.95513 | 38758 ft | 551 kts | 48° |
| 2026-05-04 20:41 | 45.06870 | -95.86669 | 38764 ft | 555 kts | 49° |
| 2026-05-04 20:41 | 45.11435 | -95.77852 | 38772 ft | 555 kts | 49° |
| 2026-05-04 20:42 | 45.15935 | -95.69054 | 38757 ft | 555 kts | 49° |
| 2026-05-04 20:42 | 45.20465 | -95.60206 | 38744 ft | 554 kts | 49° |
| 2026-05-04 20:43 | 45.24977 | -95.51354 | 38735 ft | 553 kts | 49° |
| 2026-05-04 20:43 | 45.29491 | -95.42470 | 38745 ft | 555 kts | 50° |
| 2026-05-04 20:44 | 45.34007 | -95.33560 | 38745 ft | 555 kts | 50° |
| 2026-05-04 20:44 | 45.38518 | -95.24626 | 38739 ft | 555 kts | 50° |
| 2026-05-04 20:45 | 45.42991 | -95.15743 | 38744 ft | 555 kts | 50° |
| 2026-05-04 20:45 | 45.47478 | -95.06803 | 38743 ft | 555 kts | 50° |
| 2026-05-04 20:46 | 45.51979 | -94.97809 | 38732 ft | 559 kts | 50° |
| 2026-05-04 20:46 | 45.56491 | -94.88759 | 38732 ft | 559 kts | 50° |
| 2026-05-04 20:47 | 45.60994 | -94.79702 | 38728 ft | 558 kts | 50° |
| 2026-05-04 20:47 | 45.65481 | -94.70647 | 38725 ft | 558 kts | 50° |
| 2026-05-04 20:48 | 45.69939 | -94.61625 | 38709 ft | 560 kts | 51° |
| 2026-05-04 20:48 | 45.74428 | -94.52506 | 38713 ft | 559 kts | 51° |
| 2026-05-04 20:49 | 45.78906 | -94.43384 | 38719 ft | 559 kts | 51° |
| 2026-05-04 20:49 | 45.83343 | -94.34313 | 38723 ft | 558 kts | 51° |
| 2026-05-04 20:50 | 45.87793 | -94.25191 | 38728 ft | 559 kts | 51° |
| 2026-05-04 20:50 | 45.92259 | -94.16003 | 38713 ft | 560 kts | 51° |
| 2026-05-04 20:51 | 45.96713 | -94.06809 | 38706 ft | 559 kts | 51° |
| 2026-05-04 20:51 | 46.01070 | -93.97631 | 38712 ft | 559 kts | 53° |
| 2026-05-04 20:52 | 46.05388 | -93.88311 | 38661 ft | 560 kts | 52° |
| 2026-05-04 20:52 | 46.09676 | -93.78929 | 38662 ft | 561 kts | 53° |
| 2026-05-04 20:53 | 46.13963 | -93.69538 | 38675 ft | 559 kts | 53° |
| 2026-05-04 20:53 | 46.18237 | -93.60161 | 38672 ft | 559 kts | 53° |
| 2026-05-04 20:54 | 46.22484 | -93.50781 | 38660 ft | 558 kts | 53° |
| 2026-05-04 20:54 | 46.26746 | -93.41369 | 38658 ft | 558 kts | 53° |
| 2026-05-04 20:55 | 46.30955 | -93.32015 | 38654 ft | 559 kts | 53° |
| 2026-05-04 20:55 | 46.35200 | -93.22572 | 38653 ft | 558 kts | 53° |
| 2026-05-04 20:56 | 46.39425 | -93.13123 | 38643 ft | 556 kts | 53° |
| 2026-05-04 20:56 | 46.43608 | -93.03753 | 38652 ft | 558 kts | 53° |
| 2026-05-04 20:57 | 46.47827 | -92.94256 | 38654 ft | 560 kts | 53° |
| 2026-05-04 20:57 | 46.52042 | -92.84744 | 38638 ft | 560 kts | 54° |
| 2026-05-04 20:58 | 46.56243 | -92.75227 | 38654 ft | 558 kts | 54° |
| 2026-05-04 20:58 | 46.60417 | -92.65740 | 38614 ft | 556 kts | 54° |
| 2026-05-04 20:59 | 46.64580 | -92.56246 | 38615 ft | 556 kts | 54° |
| 2026-05-04 20:59 | 46.68732 | -92.46746 | 38613 ft | 556 kts | 54° |
| 2026-05-04 21:00 | 46.72856 | -92.37276 | 38619 ft | 556 kts | 54° |
| 2026-05-04 21:00 | 46.76987 | -92.27756 | 38589 ft | 556 kts | 54° |
| 2026-05-04 21:01 | 46.81258 | -92.18381 | 38622 ft | 550 kts | 46° |
| 2026-05-04 21:01 | 46.86082 | -92.09651 | 38602 ft | 553 kts | 47° |
| 2026-05-04 21:02 | 46.90900 | -92.00862 | 38613 ft | 554 kts | 47° |
| 2026-05-04 21:02 | 46.95724 | -91.92050 | 38628 ft | 555 kts | 47° |
| 2026-05-04 21:03 | 47.00536 | -91.83222 | 38591 ft | 551 kts | 48° |
| 2026-05-04 21:03 | 47.05288 | -91.74484 | 38587 ft | 551 kts | 48° |
| 2026-05-04 21:04 | 47.10059 | -91.65678 | 38587 ft | 551 kts | 48° |
| 2026-05-04 21:04 | 47.14832 | -91.56842 | 38558 ft | 551 kts | 48° |
| 2026-05-04 21:05 | 47.19562 | -91.48056 | 38558 ft | 550 kts | 48° |
| 2026-05-04 21:05 | 47.24294 | -91.39241 | 38538 ft | 549 kts | 48° |
| 2026-05-04 21:06 | 47.29016 | -91.30416 | 38535 ft | 549 kts | 49° |
| 2026-05-04 21:06 | 47.33776 | -91.21595 | 38523 ft | 548 kts | 47° |
| 2026-05-04 21:07 | 47.38540 | -91.12830 | 38537 ft | 548 kts | 50° |
| 2026-05-04 21:07 | 47.43159 | -91.03865 | 38528 ft | 546 kts | 49° |
| 2026-05-04 21:08 | 47.47845 | -90.95046 | 38514 ft | 546 kts | 49° |
| 2026-05-04 21:08 | 47.52476 | -90.86114 | 38516 ft | 548 kts | 49° |
| 2026-05-04 21:09 | 47.57164 | -90.77216 | 38504 ft | 548 kts | 49° |
| 2026-05-04 21:09 | 47.61802 | -90.68333 | 38502 ft | 545 kts | 50° |
| 2026-05-04 21:10 | 47.66429 | -90.59460 | 38487 ft | 544 kts | 50° |
| 2026-05-04 21:10 | 47.71060 | -90.50549 | 38488 ft | 544 kts | 50° |
| 2026-05-04 21:11 | 47.75682 | -90.41620 | 38475 ft | 545 kts | 50° |
| 2026-05-04 21:11 | 47.80305 | -90.32668 | 38482 ft | 546 kts | 50° |
| 2026-05-04 21:12 | 47.84917 | -90.23699 | 38466 ft | 544 kts | 50° |
| 2026-05-04 21:12 | 47.89483 | -90.14799 | 38461 ft | 544 kts | 50° |
| 2026-05-04 21:13 | 47.94098 | -90.05767 | 38459 ft | 544 kts | 50° |
| 2026-05-04 21:13 | 47.98649 | -89.96836 | 38441 ft | 545 kts | 50° |
| 2026-05-04 21:14 | 48.03230 | -89.87810 | 38439 ft | 545 kts | 51° |
| 2026-05-04 21:14 | 48.07805 | -89.78762 | 38446 ft | 545 kts | 51° |
| 2026-05-04 21:15 | 48.12374 | -89.69700 | 38440 ft | 545 kts | 51° |
| 2026-05-04 21:15 | 48.16935 | -89.60623 | 38433 ft | 545 kts | 51° |
| 2026-05-04 21:16 | 48.21491 | -89.51525 | 38425 ft | 545 kts | 51° |
| 2026-05-04 21:16 | 48.26069 | -89.42448 | 38423 ft | 544 kts | 47° |
| 2026-05-04 21:17 | 48.30814 | -89.33561 | 38423 ft | 545 kts | 50° |
| 2026-05-04 21:17 | 48.35514 | -89.24707 | 38424 ft | 544 kts | 49° |
| 2026-05-04 21:18 | 48.40244 | -89.15814 | 38412 ft | 545 kts | 50° |
| 2026-05-04 21:18 | 48.44952 | -89.06882 | 38394 ft | 544 kts | 49° |
| 2026-05-04 21:19 | 48.49674 | -88.97938 | 38382 ft | 546 kts | 50° |
| 2026-05-04 21:19 | 48.54387 | -88.88945 | 38383 ft | 546 kts | 50° |
| 2026-05-04 21:20 | 48.59096 | -88.79956 | 38372 ft | 545 kts | 50° |
| 2026-05-04 21:20 | 48.63766 | -88.70995 | 38368 ft | 545 kts | 50° |
| 2026-05-04 21:21 | 48.68449 | -88.61988 | 38361 ft | 541 kts | 50° |
| 2026-05-04 21:21 | 48.73092 | -88.53022 | 38351 ft | 541 kts | 50° |
| 2026-05-04 21:22 | 48.76952 | -88.45549 | 38352 ft | 542 kts | 50° |
| 2026-05-04 21:22 | 48.82389 | -88.34986 | 38352 ft | 543 kts | 50° |
| 2026-05-04 21:23 | 48.87007 | -88.25980 | 38355 ft | 543 kts | 50° |
| 2026-05-04 21:23 | 48.91638 | -88.16920 | 38344 ft | 542 kts | 51° |
| 2026-05-04 21:24 | 48.96252 | -88.07861 | 38341 ft | 541 kts | 51° |
| 2026-05-04 21:24 | 49.00108 | -88.00267 | 38338 ft | 540 kts | 51° |
| 2026-05-04 21:25 | 49.04673 | -87.91250 | 38339 ft | 542 kts | 51° |
| 2026-05-04 21:25 | 49.09278 | -87.82122 | 38350 ft | 543 kts | 51° |
| 2026-05-04 21:26 | 49.13876 | -87.72975 | 38346 ft | 544 kts | 51° |
| 2026-05-04 21:26 | 49.18486 | -87.63776 | 38346 ft | 545 kts | 51° |
| 2026-05-04 21:27 | 49.23091 | -87.54551 | 38347 ft | 544 kts | 51° |
| 2026-05-04 21:27 | 49.27676 | -87.45339 | 38364 ft | 544 kts | 51° |
| 2026-05-04 21:28 | 49.32263 | -87.36088 | 38340 ft | 545 kts | 51° |
| 2026-05-04 21:28 | 49.36839 | -87.26827 | 38323 ft | 545 kts | 52° |
| 2026-05-04 21:29 | 49.41406 | -87.17553 | 38319 ft | 544 kts | 52° |
| 2026-05-04 21:29 | 49.45966 | -87.08260 | 38313 ft | 544 kts | 52° |
| 2026-05-04 21:30 | 49.50504 | -86.98980 | 38324 ft | 543 kts | 52° |
| 2026-05-04 21:30 | 49.55038 | -86.89676 | 38315 ft | 543 kts | 52° |
| 2026-05-04 21:31 | 49.61802 | -86.75735 | 38295 ft | 544 kts | 52° |
| 2026-05-04 21:32 | 49.66330 | -86.66360 | 38293 ft | 546 kts | 52° |
| 2026-05-04 21:32 | 49.70865 | -86.56940 | 38287 ft | 547 kts | 52° |
| 2026-05-04 21:33 | 49.75391 | -86.47502 | 38283 ft | 544 kts | 52° |
| 2026-05-04 21:33 | 49.79890 | -86.38090 | 38273 ft | 544 kts | 52° |
| 2026-05-04 21:34 | 49.84382 | -86.28657 | 38266 ft | 545 kts | 52° |
| 2026-05-04 21:34 | 49.88875 | -86.19190 | 38268 ft | 545 kts | 53° |
| 2026-05-04 21:35 | 49.93357 | -86.09710 | 38267 ft | 545 kts | 53° |
| 2026-05-04 21:35 | 49.97829 | -86.00219 | 38268 ft | 543 kts | 53° |
| 2026-05-04 21:36 | 50.02278 | -85.90741 | 38259 ft | 542 kts | 53° |
| 2026-05-04 21:36 | 50.06717 | -85.81253 | 38247 ft | 541 kts | 53° |
| 2026-05-04 21:37 | 50.11121 | -85.71804 | 38245 ft | 542 kts | 53° |
| 2026-05-04 21:37 | 50.15546 | -85.62276 | 38257 ft | 542 kts | 53° |
| 2026-05-04 21:38 | 50.19962 | -85.52734 | 38245 ft | 541 kts | 53° |
| 2026-05-04 21:38 | 50.24357 | -85.43203 | 38235 ft | 540 kts | 53° |
| 2026-05-04 21:39 | 50.28742 | -85.33657 | 38231 ft | 539 kts | 53° |
| 2026-05-04 21:39 | 50.33087 | -85.24165 | 38235 ft | 540 kts | 53° |
| 2026-05-04 21:40 | 50.37486 | -85.14521 | 38234 ft | 540 kts | 54° |
| 2026-05-04 21:40 | 50.41822 | -85.04979 | 38234 ft | 541 kts | 54° |
| 2026-05-04 21:41 | 50.46180 | -84.95356 | 38239 ft | 541 kts | 54° |
| 2026-05-04 21:41 | 50.50533 | -84.85707 | 38234 ft | 541 kts | 54° |
| 2026-05-04 21:42 | 50.54876 | -84.76044 | 38233 ft | 541 kts | 54° |
| 2026-05-04 21:42 | 50.59201 | -84.66386 | 38227 ft | 538 kts | 54° |
| 2026-05-04 21:43 | 50.63484 | -84.56787 | 38231 ft | 539 kts | 54° |
| 2026-05-04 21:43 | 50.67795 | -84.47089 | 38231 ft | 540 kts | 54° |
| 2026-05-04 21:44 | 50.72111 | -84.37344 | 38229 ft | 541 kts | 54° |
| 2026-05-04 21:44 | 50.76414 | -84.27593 | 38233 ft | 539 kts | 55° |
| 2026-05-04 21:45 | 50.80654 | -84.17947 | 38233 ft | 537 kts | 55° |
| 2026-05-04 21:45 | 50.84916 | -84.08215 | 38228 ft | 538 kts | 55° |
| 2026-05-04 21:46 | 50.89177 | -83.98450 | 38229 ft | 539 kts | 55° |
| 2026-05-04 21:46 | 50.93429 | -83.88671 | 38236 ft | 540 kts | 55° |
| 2026-05-04 21:47 | 50.97690 | -83.78831 | 38234 ft | 542 kts | 55° |
| 2026-05-04 21:47 | 51.01943 | -83.68975 | 38240 ft | 541 kts | 55° |
| 2026-05-04 21:48 | 51.06185 | -83.59105 | 38241 ft | 539 kts | 55° |
| 2026-05-04 21:48 | 51.10381 | -83.49306 | 38246 ft | 538 kts | 55° |
| 2026-05-04 21:49 | 51.14587 | -83.39447 | 38245 ft | 538 kts | 55° |
| 2026-05-04 21:49 | 51.18784 | -83.29571 | 38242 ft | 537 kts | 56° |
| 2026-05-04 21:50 | 51.22963 | -83.19699 | 38244 ft | 536 kts | 56° |
| 2026-05-04 21:50 | 51.27137 | -83.09803 | 38251 ft | 538 kts | 56° |
| 2026-05-04 21:51 | 51.31310 | -82.99871 | 38250 ft | 537 kts | 56° |
| 2026-05-04 21:51 | 51.35467 | -82.89939 | 38252 ft | 537 kts | 56° |
| 2026-05-04 21:52 | 51.39581 | -82.80071 | 38251 ft | 534 kts | 56° |
| 2026-05-04 21:52 | 51.43691 | -82.70176 | 38251 ft | 534 kts | 56° |
| 2026-05-04 21:53 | 51.47808 | -82.60227 | 38253 ft | 535 kts | 56° |
| 2026-05-04 21:53 | 51.51922 | -82.50246 | 38253 ft | 536 kts | 56° |
| 2026-05-04 21:54 | 51.56036 | -82.40226 | 38264 ft | 537 kts | 56° |
| 2026-05-04 21:54 | 51.60112 | -82.30259 | 38259 ft | 535 kts | 57° |
| 2026-05-04 21:55 | 51.64190 | -82.20250 | 38249 ft | 534 kts | 57° |
| 2026-05-04 21:55 | 51.68259 | -82.10223 | 38248 ft | 534 kts | 57° |
| 2026-05-04 21:56 | 51.72314 | -82.00191 | 38252 ft | 534 kts | 57° |
| 2026-05-04 21:56 | 51.76367 | -81.90127 | 38249 ft | 534 kts | 57° |
| 2026-05-04 21:57 | 51.80408 | -81.80051 | 38266 ft | 535 kts | 57° |
| 2026-05-04 21:57 | 51.84422 | -81.70005 | 38256 ft | 535 kts | 57° |
| 2026-05-04 21:58 | 51.88454 | -81.59872 | 38258 ft | 536 kts | 57° |
| 2026-05-04 21:58 | 51.92485 | -81.49703 | 38265 ft | 536 kts | 58° |
| 2026-05-04 21:59 | 51.96502 | -81.39528 | 38264 ft | 536 kts | 58° |
| 2026-05-04 21:59 | 52.00519 | -81.29314 | 38262 ft | 536 kts | 58° |
| 2026-05-04 22:00 | 52.04520 | -81.19098 | 38262 ft | 536 kts | 58° |
| 2026-05-04 22:00 | 52.08515 | -81.08856 | 38257 ft | 537 kts | 58° |
| 2026-05-04 22:01 | 52.12510 | -80.98576 | 38256 ft | 538 kts | 58° |
| 2026-05-04 22:01 | 52.16497 | -80.88273 | 38257 ft | 537 kts | 58° |
| 2026-05-04 22:02 | 52.20439 | -80.78047 | 38263 ft | 535 kts | 59° |
| 2026-05-04 22:02 | 52.24386 | -80.67764 | 38262 ft | 534 kts | 59° |
| 2026-05-04 22:03 | 52.28330 | -80.57449 | 38261 ft | 535 kts | 59° |
| 2026-05-04 22:03 | 52.32268 | -80.47104 | 38260 ft | 536 kts | 59° |
| 2026-05-04 22:04 | 52.36195 | -80.36751 | 38269 ft | 536 kts | 59° |
| 2026-05-04 22:04 | 52.40106 | -80.26393 | 38277 ft | 533 kts | 59° |
| 2026-05-04 22:05 | 52.43984 | -80.16085 | 38289 ft | 535 kts | 59° |
| 2026-05-04 22:05 | 52.47877 | -80.05692 | 38289 ft | 535 kts | 59° |
| 2026-05-04 22:06 | 52.51949 | -79.95444 | 38298 ft | 536 kts | 56° |
| 2026-05-04 22:06 | 52.56172 | -79.85431 | 38305 ft | 532 kts | 56° |
| 2026-05-04 22:07 | 52.60404 | -79.75413 | 38306 ft | 532 kts | 56° |
| 2026-05-04 22:07 | 52.64607 | -79.65402 | 38315 ft | 532 kts | 56° |
| 2026-05-04 22:08 | 52.68807 | -79.55364 | 38319 ft | 532 kts | 56° |
| 2026-05-04 22:08 | 52.72977 | -79.45362 | 38332 ft | 533 kts | 56° |
| 2026-05-04 22:09 | 52.76491 | -79.36895 | 38335 ft | 532 kts | 56° |
| 2026-05-04 22:09 | 52.81339 | -79.25179 | 38349 ft | 530 kts | 56° |
| 2026-05-04 22:10 | 52.84786 | -79.16809 | 38347 ft | 529 kts | 57° |
| 2026-05-04 22:10 | 52.88955 | -79.06656 | 38353 ft | 530 kts | 57° |
| 2026-05-04 22:11 | 52.93066 | -78.96601 | 38362 ft | 530 kts | 57° |
| 2026-05-04 22:11 | 52.97196 | -78.86459 | 38371 ft | 530 kts | 57° |
| 2026-05-04 22:12 | 53.01311 | -78.76313 | 38388 ft | 530 kts | 57° |
| 2026-05-04 22:12 | 53.05425 | -78.66130 | 38393 ft | 531 kts | 57° |
| 2026-05-04 22:13 | 53.09535 | -78.55915 | 38392 ft | 530 kts | 57° |
| 2026-05-04 22:13 | 53.13637 | -78.45680 | 38426 ft | 531 kts | 57° |
| 2026-05-04 22:14 | 53.17727 | -78.35434 | 38426 ft | 531 kts | 57° |
| 2026-05-04 22:14 | 53.21808 | -78.25167 | 38452 ft | 530 kts | 58° |
| 2026-05-04 22:15 | 53.25878 | -78.14885 | 38458 ft | 531 kts | 58° |
| 2026-05-04 22:15 | 53.29915 | -78.04648 | 38453 ft | 532 kts | 58° |
| 2026-05-04 22:16 | 53.33980 | -77.94296 | 38483 ft | 533 kts | 58° |
| 2026-05-04 22:16 | 53.38044 | -77.83903 | 38488 ft | 533 kts | 58° |
| 2026-05-04 22:17 | 53.42080 | -77.73543 | 38504 ft | 529 kts | 58° |
| 2026-05-04 22:17 | 53.46087 | -77.63208 | 38494 ft | 528 kts | 58° |
| 2026-05-04 22:18 | 53.50093 | -77.52839 | 38497 ft | 530 kts | 58° |
| 2026-05-04 22:18 | 53.54067 | -77.42506 | 38493 ft | 527 kts | 58° |
| 2026-05-04 22:19 | 53.58045 | -77.32119 | 38512 ft | 528 kts | 58° |
| 2026-05-04 22:19 | 53.61999 | -77.21761 | 38523 ft | 524 kts | 58° |
| 2026-05-04 22:20 | 53.65930 | -77.11410 | 38542 ft | 524 kts | 58° |
| 2026-05-04 22:20 | 53.69859 | -77.01026 | 38544 ft | 525 kts | 58° |
| 2026-05-04 22:21 | 53.73774 | -76.90636 | 38556 ft | 525 kts | 59° |
| 2026-05-04 22:21 | 53.77689 | -76.80203 | 38559 ft | 526 kts | 59° |
| 2026-05-04 22:22 | 53.81596 | -76.69748 | 38570 ft | 526 kts | 59° |
| 2026-05-04 22:22 | 53.85476 | -76.59321 | 38570 ft | 525 kts | 59° |
| 2026-05-04 22:23 | 53.89363 | -76.48829 | 38580 ft | 525 kts | 59° |
| 2026-05-04 22:23 | 53.93242 | -76.38319 | 38579 ft | 525 kts | 59° |
| 2026-05-04 22:24 | 53.97114 | -76.27779 | 38581 ft | 525 kts | 59° |
| 2026-05-04 22:24 | 54.00969 | -76.17244 | 38590 ft | 525 kts | 59° |
| 2026-05-04 22:25 | 54.04828 | -76.06649 | 38597 ft | 527 kts | 60° |
| 2026-05-04 22:25 | 54.08681 | -75.96025 | 38601 ft | 527 kts | 60° |
| 2026-05-04 22:26 | 54.12522 | -75.85397 | 38612 ft | 527 kts | 60° |
| 2026-05-04 22:26 | 54.16355 | -75.74734 | 38612 ft | 527 kts | 60° |
| 2026-05-04 22:27 | 54.20177 | -75.64066 | 38622 ft | 526 kts | 60° |
| 2026-05-04 22:27 | 54.23969 | -75.53430 | 38625 ft | 526 kts | 60° |
| 2026-05-04 22:28 | 54.27764 | -75.42739 | 38609 ft | 525 kts | 60° |
| 2026-05-04 22:28 | 54.31549 | -75.32034 | 38617 ft | 525 kts | 60° |
| 2026-05-04 22:29 | 54.35326 | -75.21302 | 38618 ft | 525 kts | 60° |
| 2026-05-04 22:29 | 54.39088 | -75.10565 | 38618 ft | 525 kts | 60° |
| 2026-05-04 22:30 | 54.42842 | -74.99805 | 38617 ft | 525 kts | 60° |
| 2026-05-04 22:30 | 54.46590 | -74.89017 | 38625 ft | 525 kts | 60° |
| 2026-05-04 22:31 | 54.50295 | -74.78303 | 38631 ft | 523 kts | 60° |
| 2026-05-04 22:31 | 54.54001 | -74.67542 | 38629 ft | 522 kts | 61° |
| 2026-05-04 22:32 | 54.57697 | -74.56760 | 38633 ft | 523 kts | 61° |
| 2026-05-04 22:32 | 54.61398 | -74.45917 | 38639 ft | 525 kts | 61° |
| 2026-05-04 22:33 | 54.65092 | -74.35045 | 38637 ft | 525 kts | 61° |
| 2026-05-04 22:33 | 54.68774 | -74.24164 | 38642 ft | 523 kts | 61° |
| 2026-05-04 22:34 | 54.72411 | -74.13365 | 38632 ft | 522 kts | 61° |
| 2026-05-04 22:34 | 54.76045 | -74.02527 | 38648 ft | 519 kts | 62° |
| 2026-05-04 22:35 | 54.79669 | -73.91669 | 38651 ft | 521 kts | 62° |
| 2026-05-04 22:35 | 54.83288 | -73.80777 | 38653 ft | 522 kts | 62° |
| 2026-05-04 22:36 | 54.86905 | -73.69844 | 38656 ft | 522 kts | 62° |
| 2026-05-04 22:36 | 54.90509 | -73.58901 | 38656 ft | 522 kts | 62° |
| 2026-05-04 22:37 | 54.94105 | -73.47932 | 38660 ft | 522 kts | 62° |
| 2026-05-04 22:37 | 54.97689 | -73.36952 | 38657 ft | 520 kts | 62° |
| 2026-05-04 22:38 | 55.01246 | -73.26004 | 38654 ft | 518 kts | 62° |
| 2026-05-04 22:38 | 55.04786 | -73.15056 | 38656 ft | 518 kts | 62° |
| 2026-05-04 22:39 | 55.08301 | -73.04139 | 38651 ft | 519 kts | 62° |
| 2026-05-04 22:39 | 55.11827 | -72.93138 | 38655 ft | 519 kts | 62° |
| 2026-05-04 22:40 | 55.15342 | -72.82119 | 38655 ft | 519 kts | 62° |
| 2026-05-04 22:40 | 55.18855 | -72.71055 | 38665 ft | 520 kts | 63° |
| 2026-05-04 22:41 | 55.22354 | -72.59986 | 38666 ft | 520 kts | 63° |
| 2026-05-04 22:41 | 55.25846 | -72.48888 | 38667 ft | 519 kts | 63° |
| 2026-05-04 22:42 | 55.29299 | -72.37862 | 38670 ft | 518 kts | 63° |
| 2026-05-04 22:42 | 55.32759 | -72.26762 | 38669 ft | 517 kts | 63° |
| 2026-05-04 22:43 | 55.36201 | -72.15672 | 38675 ft | 517 kts | 63° |
| 2026-05-04 22:43 | 55.39629 | -72.04571 | 38676 ft | 516 kts | 63° |
| 2026-05-04 22:44 | 55.43049 | -71.93446 | 38701 ft | 517 kts | 63° |
| 2026-05-04 22:44 | 55.46467 | -71.82275 | 38699 ft | 518 kts | 63° |
| 2026-05-04 22:45 | 55.49877 | -71.71077 | 38695 ft | 517 kts | 64° |
| 2026-05-04 22:45 | 55.54940 | -71.54350 | 38702 ft | 517 kts | 64° |
| 2026-05-04 22:46 | 55.58317 | -71.43131 | 38697 ft | 516 kts | 64° |
| 2026-05-04 22:46 | 55.61677 | -71.31911 | 38697 ft | 516 kts | 64° |
| 2026-05-04 22:47 | 55.65030 | -71.20663 | 38701 ft | 517 kts | 64° |
| 2026-05-04 22:47 | 55.68357 | -71.09450 | 38704 ft | 516 kts | 64° |
| 2026-05-04 22:48 | 55.71688 | -70.98166 | 38708 ft | 516 kts | 64° |
| 2026-05-04 22:48 | 55.75007 | -70.86873 | 38709 ft | 516 kts | 64° |
| 2026-05-04 22:49 | 55.78314 | -70.75561 | 38711 ft | 515 kts | 65° |
| 2026-05-04 22:49 | 55.81609 | -70.64240 | 38711 ft | 515 kts | 65° |
| 2026-05-04 22:50 | 55.84886 | -70.52923 | 38715 ft | 515 kts | 65° |
| 2026-05-04 22:50 | 55.88159 | -70.41566 | 38713 ft | 515 kts | 65° |
| 2026-05-04 22:51 | 55.91399 | -70.30270 | 38716 ft | 515 kts | 65° |
| 2026-05-04 22:51 | 55.94648 | -70.18887 | 38716 ft | 514 kts | 65° |
| 2026-05-04 22:52 | 55.97879 | -70.07508 | 38712 ft | 514 kts | 65° |
| 2026-05-04 22:52 | 56.01269 | -69.96266 | 38732 ft | 514 kts | 60° |
| 2026-05-04 22:53 | 56.05011 | -69.85286 | 38721 ft | 517 kts | 61° |
| 2026-05-04 22:53 | 56.08712 | -69.74328 | 38726 ft | 517 kts | 61° |
| 2026-05-04 22:54 | 56.12431 | -69.63295 | 38718 ft | 516 kts | 62° |
| 2026-05-04 22:54 | 56.16110 | -69.52316 | 38715 ft | 512 kts | 62° |
| 2026-05-04 22:55 | 56.19780 | -69.41321 | 38714 ft | 513 kts | 62° |
| 2026-05-04 22:55 | 56.23424 | -69.30353 | 38719 ft | 510 kts | 62° |
| 2026-05-04 22:56 | 56.26440 | -69.21231 | 38718 ft | 510 kts | 62° |
| 2026-05-04 22:56 | 56.30067 | -69.10224 | 38725 ft | 511 kts | 62° |
| 2026-05-04 22:57 | 56.33683 | -68.99194 | 38725 ft | 511 kts | 62° |
| 2026-05-04 22:57 | 56.37299 | -68.88118 | 38730 ft | 512 kts | 62° |
| 2026-05-04 22:58 | 56.40872 | -68.77121 | 38724 ft | 509 kts | 63° |
| 2026-05-04 22:58 | 56.44442 | -68.66079 | 38726 ft | 508 kts | 63° |
| 2026-05-04 22:59 | 56.48000 | -68.55026 | 38726 ft | 508 kts | 63° |
| 2026-05-04 22:59 | 56.51548 | -68.43953 | 38728 ft | 508 kts | 63° |
| 2026-05-04 23:00 | 56.55088 | -68.32855 | 38736 ft | 509 kts | 63° |
| 2026-05-04 23:00 | 56.58621 | -68.21723 | 38736 ft | 509 kts | 63° |
| 2026-05-04 23:01 | 56.62150 | -68.10553 | 38733 ft | 511 kts | 63° |
| 2026-05-04 23:01 | 56.65676 | -67.99342 | 38740 ft | 511 kts | 63° |
| 2026-05-04 23:02 | 56.69194 | -67.88099 | 38745 ft | 513 kts | 63° |
| 2026-05-04 23:02 | 56.72715 | -67.76798 | 38737 ft | 514 kts | 63° |
| 2026-05-04 23:03 | 56.76228 | -67.65467 | 38736 ft | 513 kts | 63° |
| 2026-05-04 23:03 | 56.79725 | -67.54133 | 38733 ft | 512 kts | 64° |
| 2026-05-04 23:04 | 56.83212 | -67.42776 | 38728 ft | 512 kts | 64° |
| 2026-05-04 23:04 | 56.86679 | -67.31429 | 38726 ft | 511 kts | 64° |
| 2026-05-04 23:05 | 56.90114 | -67.20135 | 38725 ft | 511 kts | 64° |
| 2026-05-04 23:05 | 56.93559 | -67.08752 | 38708 ft | 511 kts | 64° |
| 2026-05-04 23:06 | 56.96995 | -66.97340 | 38707 ft | 511 kts | 65° |
| 2026-05-04 23:06 | 57.00421 | -66.85909 | 38700 ft | 510 kts | 65° |
| 2026-05-04 23:07 | 57.03831 | -66.74477 | 38692 ft | 511 kts | 65° |
| 2026-05-04 23:07 | 57.07236 | -66.63002 | 38692 ft | 512 kts | 65° |
| 2026-05-04 23:08 | 57.10637 | -66.51487 | 38685 ft | 512 kts | 65° |
| 2026-05-04 23:08 | 57.14009 | -66.40016 | 38683 ft | 507 kts | 65° |
| 2026-05-04 23:09 | 57.17329 | -66.28658 | 38681 ft | 506 kts | 66° |
| 2026-05-04 23:09 | 57.20662 | -66.17209 | 38685 ft | 503 kts | 66° |
| 2026-05-04 23:10 | 57.23915 | -66.05978 | 38671 ft | 493 kts | 66° |
| 2026-05-04 23:10 | 57.27145 | -65.94757 | 38671 ft | 496 kts | 66° |
| 2026-05-04 23:11 | 57.30380 | -65.83491 | 38668 ft | 496 kts | 66° |
| 2026-05-04 23:11 | 57.33599 | -65.72203 | 38670 ft | 496 kts | 66° |
| 2026-05-04 23:12 | 57.36811 | -65.60896 | 38663 ft | 496 kts | 66° |
| 2026-05-04 23:12 | 57.40017 | -65.49552 | 38663 ft | 496 kts | 66° |
| 2026-05-04 23:13 | 57.43206 | -65.38210 | 38665 ft | 496 kts | 66° |
| 2026-05-04 23:13 | 57.46372 | -65.26895 | 38630 ft | 497 kts | 66° |
| 2026-05-04 23:14 | 57.49571 | -65.15405 | 38645 ft | 503 kts | 66° |
| 2026-05-04 23:14 | 57.52776 | -65.03843 | 38646 ft | 501 kts | 66° |
| 2026-05-04 23:15 | 57.55956 | -64.92302 | 38644 ft | 500 kts | 66° |
| 2026-05-04 23:15 | 57.59121 | -64.80762 | 38644 ft | 500 kts | 66° |
| 2026-05-04 23:16 | 57.62285 | -64.69165 | 38627 ft | 501 kts | 66° |
| 2026-05-04 23:16 | 57.65446 | -64.57518 | 38646 ft | 505 kts | 66° |
| 2026-05-04 23:17 | 57.68608 | -64.45820 | 38634 ft | 504 kts | 67° |
| 2026-05-04 23:17 | 57.71753 | -64.34110 | 38642 ft | 503 kts | 67° |
| 2026-05-04 23:18 | 57.74867 | -64.22461 | 38637 ft | 503 kts | 67° |
| 2026-05-04 23:18 | 57.77982 | -64.10748 | 38634 ft | 502 kts | 67° |
| 2026-05-04 23:19 | 57.81089 | -63.99000 | 38639 ft | 504 kts | 67° |
| 2026-05-04 23:19 | 57.84200 | -63.87181 | 38646 ft | 506 kts | 67° |
| 2026-05-04 23:20 | 57.87308 | -63.75309 | 38648 ft | 506 kts | 68° |
| 2026-05-04 23:20 | 57.90399 | -63.63438 | 38655 ft | 505 kts | 68° |
| 2026-05-04 23:21 | 57.93474 | -63.51566 | 38653 ft | 504 kts | 68° |
| 2026-05-04 23:21 | 57.96537 | -63.39677 | 38665 ft | 504 kts | 68° |
| 2026-05-04 23:22 | 57.99592 | -63.27762 | 38666 ft | 506 kts | 67° |
| 2026-05-04 23:22 | 58.03107 | -63.16284 | 38680 ft | 509 kts | 64° |
| 2026-05-04 23:23 | 58.06695 | -63.04642 | 38676 ft | 509 kts | 64° |
| 2026-05-04 23:23 | 58.10245 | -62.93154 | 38683 ft | 509 kts | 64° |
| 2026-05-04 23:24 | 58.13796 | -62.81553 | 38673 ft | 508 kts | 64° |
| 2026-05-04 23:24 | 58.17324 | -62.70001 | 38678 ft | 506 kts | 64° |
| 2026-05-04 23:25 | 58.20814 | -62.58501 | 38669 ft | 506 kts | 64° |
| 2026-05-04 23:25 | 58.24314 | -62.46918 | 38675 ft | 506 kts | 64° |
| 2026-05-04 23:26 | 58.27808 | -62.35293 | 38676 ft | 505 kts | 65° |
| 2026-05-04 23:26 | 58.31261 | -62.23753 | 38676 ft | 501 kts | 65° |
| 2026-05-04 23:27 | 58.34701 | -62.12186 | 38662 ft | 502 kts | 65° |
| 2026-05-04 23:27 | 58.38130 | -62.00614 | 38661 ft | 501 kts | 65° |
| 2026-05-04 23:28 | 58.41541 | -61.89035 | 38661 ft | 501 kts | 65° |
| 2026-05-04 23:28 | 58.44924 | -61.77500 | 38662 ft | 501 kts | 65° |
| 2026-05-04 23:29 | 58.48318 | -61.65866 | 38644 ft | 501 kts | 65° |
| 2026-05-04 23:29 | 58.51705 | -61.54198 | 38646 ft | 501 kts | 66° |
| 2026-05-04 23:30 | 58.55086 | -61.42492 | 38647 ft | 501 kts | 66° |
| 2026-05-04 23:30 | 58.58426 | -61.30868 | 38648 ft | 501 kts | 66° |
| 2026-05-04 23:31 | 58.61782 | -61.19126 | 38637 ft | 502 kts | 66° |
| 2026-05-04 23:31 | 58.65136 | -61.07336 | 38616 ft | 503 kts | 66° |
| 2026-05-04 23:32 | 58.68468 | -60.95561 | 38629 ft | 504 kts | 66° |
| 2026-05-04 23:32 | 58.71813 | -60.83678 | 38616 ft | 505 kts | 66° |
| 2026-05-04 23:33 | 58.75146 | -60.71782 | 38616 ft | 504 kts | 66° |
| 2026-05-04 23:33 | 58.78458 | -60.59891 | 38612 ft | 502 kts | 66° |
| 2026-05-04 23:34 | 58.81748 | -60.48022 | 38587 ft | 501 kts | 66° |
| 2026-05-04 23:34 | 58.85036 | -60.36092 | 38605 ft | 506 kts | 66° |
| 2026-05-04 23:35 | 58.88314 | -60.24146 | 38618 ft | 506 kts | 66° |
| 2026-05-04 23:35 | 58.91596 | -60.12115 | 38607 ft | 504 kts | 66° |
| 2026-05-04 23:36 | 58.94846 | -60.00138 | 38615 ft | 502 kts | 67° |
| 2026-05-04 23:36 | 58.98083 | -59.88148 | 38606 ft | 502 kts | 67° |
| 2026-05-04 23:37 | 59.01311 | -59.76126 | 38627 ft | 503 kts | 67° |
| 2026-05-04 23:37 | 59.04535 | -59.64056 | 38628 ft | 503 kts | 67° |
| 2026-05-04 23:38 | 59.07735 | -59.52011 | 38635 ft | 504 kts | 67° |
| 2026-05-04 23:38 | 59.10939 | -59.39884 | 38629 ft | 504 kts | 67° |
| 2026-05-04 23:39 | 59.14135 | -59.27726 | 38638 ft | 503 kts | 67° |
| 2026-05-04 23:39 | 59.16798 | -59.17541 | 38625 ft | 503 kts | 67° |
| 2026-05-04 23:40 | 59.20485 | -59.03363 | 38632 ft | 505 kts | 67° |
| 2026-05-04 23:40 | 59.23644 | -58.91150 | 38626 ft | 502 kts | 68° |
| 2026-05-04 23:41 | 59.26775 | -58.78967 | 38632 ft | 501 kts | 68° |
| 2026-05-04 23:41 | 59.29366 | -58.68843 | 38633 ft | 500 kts | 68° |
| 2026-05-04 23:42 | 59.32977 | -58.54650 | 38643 ft | 500 kts | 68° |
| 2026-05-04 23:42 | 59.35574 | -58.44388 | 38647 ft | 503 kts | 68° |
| 2026-05-04 23:43 | 59.38653 | -58.32164 | 38658 ft | 503 kts | 68° |
| 2026-05-04 23:43 | 59.41738 | -58.19840 | 38657 ft | 502 kts | 68° |
| 2026-05-04 23:44 | 59.44800 | -58.07543 | 38660 ft | 501 kts | 68° |
| 2026-05-04 23:44 | 59.47761 | -57.95177 | 38654 ft | 498 kts | 70° |
| 2026-05-04 23:45 | 59.50681 | -57.82695 | 38677 ft | 502 kts | 69° |
| 2026-05-04 23:45 | 59.53537 | -57.70184 | 38677 ft | 500 kts | 70° |
| 2026-05-04 23:46 | 59.56380 | -57.57749 | 38683 ft | 499 kts | 70° |
| 2026-05-04 23:46 | 59.59210 | -57.45272 | 38674 ft | 498 kts | 70° |
| 2026-05-04 23:47 | 59.62036 | -57.32734 | 38673 ft | 500 kts | 70° |
| 2026-05-04 23:47 | 59.64865 | -57.20123 | 38687 ft | 504 kts | 70° |
| 2026-05-04 23:48 | 59.67696 | -57.07416 | 38685 ft | 504 kts | 70° |
| 2026-05-04 23:48 | 59.70506 | -56.94734 | 38697 ft | 502 kts | 70° |
| 2026-05-04 23:49 | 59.73296 | -56.82058 | 38694 ft | 501 kts | 70° |
| 2026-05-04 23:49 | 59.76069 | -56.69392 | 38695 ft | 500 kts | 70° |
| 2026-05-04 23:50 | 59.78810 | -56.56789 | 38714 ft | 502 kts | 70° |
| 2026-05-04 23:50 | 59.81581 | -56.43973 | 38727 ft | 506 kts | 70° |
| 2026-05-04 23:51 | 59.84342 | -56.31130 | 38731 ft | 504 kts | 70° |
| 2026-05-04 23:51 | 59.87084 | -56.18286 | 38740 ft | 503 kts | 71° |
| 2026-05-04 23:52 | 59.89807 | -56.05458 | 38737 ft | 502 kts | 71° |
| 2026-05-04 23:52 | 59.92511 | -55.92633 | 38731 ft | 503 kts | 71° |
| 2026-05-04 23:53 | 59.95224 | -55.79685 | 38740 ft | 508 kts | 71° |
| 2026-05-04 23:53 | 59.97941 | -55.66650 | 38754 ft | 508 kts | 71° |
| 2026-05-04 23:54 | 60.00624 | -55.53678 | 38751 ft | 508 kts | 71° |
| 2026-05-04 23:54 | 60.03310 | -55.40621 | 38762 ft | 506 kts | 71° |
| 2026-05-04 23:55 | 60.05976 | -55.27569 | 38763 ft | 506 kts | 71° |
| 2026-05-04 23:56 | 60.09945 | -55.07983 | 38771 ft | 506 kts | 71° |
| 2026-05-04 23:56 | 60.12558 | -54.94993 | 38772 ft | 505 kts | 71° |
| 2026-05-04 23:57 | 60.15173 | -54.81895 | 38773 ft | 505 kts | 71° |
| 2026-05-04 23:57 | 60.17778 | -54.68769 | 38778 ft | 505 kts | 72° |
| 2026-05-04 23:58 | 60.20368 | -54.55629 | 38776 ft | 506 kts | 71° |
| 2026-05-04 23:58 | 60.22961 | -54.42379 | 38788 ft | 511 kts | 72° |
| 2026-05-04 23:59 | 60.25552 | -54.29076 | 38799 ft | 511 kts | 72° |
| 2026-05-04 23:59 | 60.28116 | -54.15796 | 38806 ft | 512 kts | 72° |
| 2026-05-05 00:00 | 60.30680 | -54.02442 | 38808 ft | 511 kts | 72° |
| 2026-05-05 00:00 | 60.33230 | -53.89063 | 38819 ft | 511 kts | 73° |
| 2026-05-05 00:01 | 60.35777 | -53.75606 | 38830 ft | 515 kts | 72° |
| 2026-05-05 00:01 | 60.38326 | -53.62047 | 38847 ft | 516 kts | 72° |
| 2026-05-05 00:02 | 60.40844 | -53.48562 | 38844 ft | 515 kts | 72° |
| 2026-05-05 00:02 | 60.43356 | -53.35014 | 38859 ft | 515 kts | 72° |
| 2026-05-05 00:03 | 60.45861 | -53.21396 | 38859 ft | 515 kts | 72° |
| 2026-05-05 00:03 | 60.48355 | -53.07761 | 38858 ft | 515 kts | 72° |
| 2026-05-05 00:04 | 60.50832 | -52.94106 | 38858 ft | 516 kts | 72° |
| 2026-05-05 00:04 | 60.53299 | -52.80428 | 38880 ft | 515 kts | 72° |
| 2026-05-05 00:05 | 60.55745 | -52.66745 | 38882 ft | 515 kts | 73° |
| 2026-05-05 00:05 | 60.58166 | -52.53123 | 38897 ft | 515 kts | 73° |
| 2026-05-05 00:06 | 60.60582 | -52.39409 | 38895 ft | 515 kts | 73° |
| 2026-05-05 00:06 | 60.62997 | -52.25615 | 38908 ft | 517 kts | 73° |
| 2026-05-05 00:07 | 60.65399 | -52.11793 | 38906 ft | 516 kts | 73° |
| 2026-05-05 00:07 | 60.67782 | -51.97967 | 38922 ft | 517 kts | 73° |
| 2026-05-05 00:08 | 60.70154 | -51.84112 | 38915 ft | 517 kts | 73° |
| 2026-05-05 00:08 | 60.72500 | -51.70303 | 38935 ft | 518 kts | 73° |
| 2026-05-05 00:09 | 60.74853 | -51.56353 | 38933 ft | 519 kts | 73° |
| 2026-05-05 00:09 | 60.77191 | -51.42380 | 38946 ft | 520 kts | 73° |
| 2026-05-05 00:10 | 60.79518 | -51.28362 | 38965 ft | 520 kts | 73° |
| 2026-05-05 00:10 | 60.81830 | -51.14331 | 38964 ft | 519 kts | 73° |
| 2026-05-05 00:11 | 60.84127 | -51.00285 | 38969 ft | 520 kts | 73° |
| 2026-05-05 00:11 | 60.86411 | -50.86193 | 38976 ft | 522 kts | 73° |
| 2026-05-05 00:12 | 60.88689 | -50.72040 | 38995 ft | 521 kts | 73° |
| 2026-05-05 00:12 | 60.90939 | -50.57942 | 38993 ft | 521 kts | 73° |
| 2026-05-05 00:13 | 60.93188 | -50.43750 | 39001 ft | 522 kts | 73° |
| 2026-05-05 00:13 | 60.95423 | -50.29516 | 39002 ft | 522 kts | 73° |
| 2026-05-05 00:14 | 60.97643 | -50.15273 | 39017 ft | 523 kts | 73° |
| 2026-05-05 00:14 | 60.99843 | -50.00948 | 39021 ft | 525 kts | 76° |
| 2026-05-05 00:15 | 61.01221 | -49.86179 | 39045 ft | 526 kts | 81° |
| 2026-05-05 00:15 | 61.02484 | -49.71412 | 39051 ft | 526 kts | 81° |
| 2026-05-05 00:16 | 61.03762 | -49.56567 | 39052 ft | 526 kts | 81° |
| 2026-05-05 00:16 | 61.05005 | -49.41694 | 39057 ft | 526 kts | 81° |
| 2026-05-05 00:17 | 61.06247 | -49.26795 | 39056 ft | 528 kts | 81° |
| 2026-05-05 00:17 | 61.07470 | -49.11818 | 39063 ft | 528 kts | 81° |
| 2026-05-05 00:18 | 61.08680 | -48.96834 | 39066 ft | 529 kts | 81° |
| 2026-05-05 00:18 | 61.09871 | -48.81838 | 39083 ft | 529 kts | 81° |
| 2026-05-05 00:19 | 61.11041 | -48.66908 | 39084 ft | 529 kts | 81° |
| 2026-05-05 00:19 | 61.12198 | -48.51903 | 39094 ft | 528 kts | 81° |
| 2026-05-05 00:20 | 61.13343 | -48.36845 | 39105 ft | 530 kts | 81° |
| 2026-05-05 00:20 | 61.14470 | -48.21770 | 39090 ft | 528 kts | 81° |
| 2026-05-05 00:21 | 61.15580 | -48.06705 | 39108 ft | 528 kts | 81° |
| 2026-05-05 00:21 | 61.16672 | -47.91641 | 39112 ft | 529 kts | 81° |
| 2026-05-05 00:22 | 61.17742 | -47.76653 | 39123 ft | 529 kts | 82° |
| 2026-05-05 00:22 | 61.18801 | -47.61569 | 39136 ft | 529 kts | 82° |
| 2026-05-05 00:23 | 61.19844 | -47.46457 | 39147 ft | 529 kts | 82° |
| 2026-05-05 00:23 | 61.20870 | -47.31328 | 39148 ft | 529 kts | 82° |
| 2026-05-05 00:24 | 61.21879 | -47.16209 | 39146 ft | 529 kts | 82° |
| 2026-05-05 00:24 | 61.22870 | -47.01093 | 39147 ft | 527 kts | 82° |
| 2026-05-05 00:25 | 61.23834 | -46.86132 | 39148 ft | 526 kts | 82° |
| 2026-05-05 00:25 | 61.24790 | -46.71004 | 39168 ft | 531 kts | 82° |
| 2026-05-05 00:26 | 61.25737 | -46.55766 | 39167 ft | 532 kts | 82° |
| 2026-05-05 00:26 | 61.26666 | -46.40527 | 39171 ft | 530 kts | 82° |
| 2026-05-05 00:27 | 61.27573 | -46.25351 | 39162 ft | 529 kts | 83° |
| 2026-05-05 00:27 | 61.28466 | -46.10131 | 39162 ft | 530 kts | 83° |
| 2026-05-05 00:28 | 61.29338 | -45.94963 | 39151 ft | 531 kts | 83° |
| 2026-05-05 00:28 | 61.30062 | -45.82139 | 39162 ft | 534 kts | 83° |
| 2026-05-05 00:29 | 61.31051 | -45.64245 | 39170 ft | 535 kts | 83° |
| 2026-05-05 00:29 | 61.31743 | -45.51457 | 39168 ft | 533 kts | 83° |
| 2026-05-05 00:30 | 61.32557 | -45.36118 | 39165 ft | 532 kts | 83° |
| 2026-05-05 00:30 | 61.33355 | -45.20745 | 39165 ft | 534 kts | 83° |
| 2026-05-05 00:31 | 61.34137 | -45.05335 | 39168 ft | 535 kts | 83° |
| 2026-05-05 00:31 | 61.34905 | -44.89843 | 39153 ft | 538 kts | 83° |
| 2026-05-05 00:32 | 61.35655 | -44.74341 | 39152 ft | 537 kts | 83° |
| 2026-05-05 00:32 | 61.36382 | -44.58962 | 39151 ft | 535 kts | 83° |
| 2026-05-05 00:33 | 61.37095 | -44.43500 | 39152 ft | 536 kts | 83° |
| 2026-05-05 00:33 | 61.37791 | -44.28021 | 39171 ft | 536 kts | 84° |
| 2026-05-05 00:34 | 61.38471 | -44.12488 | 39188 ft | 538 kts | 83° |
| 2026-05-05 00:34 | 61.39136 | -43.96909 | 39252 ft | 539 kts | 83° |
| 2026-05-05 00:35 | 61.39781 | -43.81340 | 39237 ft | 537 kts | 83° |
| 2026-05-05 00:35 | 61.40407 | -43.65829 | 39236 ft | 536 kts | 83° |
| 2026-05-05 00:36 | 61.41011 | -43.50425 | 39313 ft | 536 kts | 84° |
| 2026-05-05 00:36 | 61.41604 | -43.34807 | 39313 ft | 536 kts | 84° |
| 2026-05-05 00:37 | 61.42174 | -43.19359 | 39327 ft | 538 kts | 83° |
| 2026-05-05 00:37 | 61.42733 | -43.03734 | 39342 ft | 540 kts | 83° |
| 2026-05-05 00:38 | 61.43273 | -42.88079 | 39344 ft | 540 kts | 84° |
| 2026-05-05 00:38 | 61.43796 | -42.72428 | 39345 ft | 540 kts | 84° |
| 2026-05-05 00:39 | 61.44300 | -42.56782 | 39333 ft | 537 kts | 84° |
| 2026-05-05 00:39 | 61.44785 | -42.41181 | 39334 ft | 537 kts | 84° |
| 2026-05-05 00:40 | 61.45251 | -42.25608 | 39337 ft | 536 kts | 84° |
| 2026-05-05 00:40 | 61.45699 | -42.10062 | 39333 ft | 535 kts | 84° |
| 2026-05-05 00:41 | 61.46129 | -41.94495 | 39338 ft | 536 kts | 84° |
| 2026-05-05 00:41 | 61.46540 | -41.78982 | 39339 ft | 537 kts | 84° |
| 2026-05-05 00:42 | 61.46939 | -41.63264 | 39341 ft | 538 kts | 84° |
| 2026-05-05 00:42 | 61.47315 | -41.47718 | 39334 ft | 538 kts | 84° |
| 2026-05-05 00:43 | 61.47673 | -41.32139 | 39322 ft | 532 kts | 84° |
| 2026-05-05 00:43 | 61.48013 | -41.16685 | 39318 ft | 532 kts | 84° |
| 2026-05-05 00:44 | 61.48334 | -41.01187 | 39313 ft | 533 kts | 84° |
| 2026-05-05 00:44 | 61.48639 | -40.85659 | 39307 ft | 534 kts | 85° |
| 2026-05-05 00:45 | 61.48927 | -40.70089 | 39297 ft | 535 kts | 85° |
| 2026-05-05 00:45 | 61.49196 | -40.54536 | 39306 ft | 535 kts | 85° |
| 2026-05-05 00:46 | 61.49448 | -40.38991 | 39283 ft | 532 kts | 85° |
| 2026-05-05 00:46 | 61.49681 | -40.23538 | 39282 ft | 530 kts | 85° |
| 2026-05-05 00:47 | 61.49896 | -40.08103 | 39284 ft | 530 kts | 85° |
| 2026-05-05 00:47 | 61.49892 | -39.92745 | 39274 ft | 532 kts | 89° |
| 2026-05-05 00:48 | 61.49700 | -39.77235 | 39279 ft | 533 kts | 89° |
| 2026-05-05 00:48 | 61.49456 | -39.61718 | 39273 ft | 534 kts | 89° |
| 2026-05-05 00:49 | 61.49209 | -39.46188 | 39267 ft | 532 kts | 89° |
| 2026-05-05 00:49 | 61.48941 | -39.30710 | 39265 ft | 531 kts | 89° |
| 2026-05-05 00:50 | 61.48656 | -39.15267 | 39264 ft | 531 kts | 89° |
| 2026-05-05 00:50 | 61.48355 | -38.99822 | 39261 ft | 531 kts | 89° |
| 2026-05-05 00:51 | 61.48036 | -38.84484 | 39255 ft | 531 kts | 89° |
| 2026-05-05 00:51 | 61.47700 | -38.69035 | 39249 ft | 531 kts | 90° |
| 2026-05-05 00:52 | 61.47345 | -38.53601 | 39247 ft | 531 kts | 90° |
| 2026-05-05 00:52 | 61.46973 | -38.38146 | 39255 ft | 531 kts | 90° |
| 2026-05-05 00:53 | 61.46584 | -38.22716 | 39243 ft | 531 kts | 90° |
| 2026-05-05 00:53 | 61.46178 | -38.07306 | 39247 ft | 530 kts | 90° |
| 2026-05-05 00:54 | 61.45754 | -37.91891 | 39388 ft | 532 kts | 90° |
| 2026-05-05 00:54 | 61.45535 | -37.84170 | 39550 ft | 532 kts | 90° |
| 2026-05-05 00:54 | 61.45314 | -37.76542 | 39680 ft | 533 kts | 90° |
| 2026-05-05 00:55 | 61.44851 | -37.60966 | 39862 ft | 537 kts | 91° |
| 2026-05-05 00:55 | 61.44611 | -37.53179 | 40023 ft | 537 kts | 91° |
| 2026-05-05 00:55 | 61.44368 | -37.45383 | 40184 ft | 537 kts | 91° |
| 2026-05-05 00:55 | 61.44121 | -37.37600 | 40335 ft | 537 kts | 91° |
| 2026-05-05 00:56 | 61.43869 | -37.29807 | 40489 ft | 537 kts | 91° |
| 2026-05-05 00:56 | 61.43613 | -37.22028 | 40640 ft | 537 kts | 91° |
| 2026-05-05 00:56 | 61.43351 | -37.14244 | 40811 ft | 537 kts | 91° |
| 2026-05-05 00:56 | 61.43087 | -37.06474 | 40954 ft | 537 kts | 91° |
| 2026-05-05 00:57 | 61.42817 | -36.98684 | 41113 ft | 537 kts | 91° |
| 2026-05-05 00:57 | 61.42542 | -36.90903 | 41251 ft | 537 kts | 92° |
| 2026-05-05 00:57 | 61.42263 | -36.83101 | 41257 ft | 540 kts | 92° |
| 2026-05-05 00:58 | 61.41690 | -36.67497 | 41238 ft | 540 kts | 92° |
| 2026-05-05 00:58 | 61.41100 | -36.51907 | 41229 ft | 538 kts | 92° |
| 2026-05-05 00:59 | 61.40493 | -36.36338 | 41231 ft | 537 kts | 92° |
| 2026-05-05 00:59 | 61.39869 | -36.20805 | 41231 ft | 537 kts | 92° |
| 2026-05-05 01:00 | 61.39230 | -36.05336 | 41237 ft | 537 kts | 92° |
| 2026-05-05 01:00 | 61.38569 | -35.89785 | 41265 ft | 538 kts | 92° |
| 2026-05-05 01:01 | 61.37890 | -35.74212 | 41253 ft | 539 kts | 92° |
| 2026-05-05 01:01 | 61.37191 | -35.58610 | 41251 ft | 540 kts | 93° |
| 2026-05-05 01:02 | 61.36474 | -35.43014 | 41245 ft | 540 kts | 93° |
| 2026-05-05 01:02 | 61.35740 | -35.27438 | 41252 ft | 540 kts | 93° |
| 2026-05-05 01:03 | 61.34992 | -35.11944 | 41248 ft | 540 kts | 93° |
| 2026-05-05 01:03 | 61.34221 | -34.96374 | 41275 ft | 540 kts | 93° |
| 2026-05-05 01:04 | 61.33433 | -34.80798 | 41253 ft | 540 kts | 94° |
| 2026-05-05 01:04 | 61.32219 | -34.57486 | 41252 ft | 539 kts | 94° |
| 2026-05-05 01:05 | 61.31393 | -34.42062 | 41254 ft | 539 kts | 94° |
| 2026-05-05 01:05 | 61.30546 | -34.26575 | 41251 ft | 538 kts | 94° |
| 2026-05-05 01:06 | 61.29681 | -34.11095 | 41243 ft | 538 kts | 94° |
| 2026-05-05 01:06 | 61.28799 | -33.95643 | 41263 ft | 538 kts | 94° |
| 2026-05-05 01:07 | 61.27900 | -33.80187 | 41257 ft | 539 kts | 94° |
| 2026-05-05 01:07 | 61.26979 | -33.64693 | 41263 ft | 540 kts | 95° |
| 2026-05-05 01:08 | 61.26041 | -33.49189 | 41271 ft | 540 kts | 95° |
| 2026-05-05 01:08 | 61.25090 | -33.33801 | 41267 ft | 540 kts | 95° |
| 2026-05-05 01:09 | 61.24119 | -33.18360 | 41275 ft | 539 kts | 95° |
| 2026-05-05 01:09 | 61.23127 | -33.02883 | 41260 ft | 539 kts | 95° |
| 2026-05-05 01:10 | 61.22124 | -32.87510 | 41259 ft | 537 kts | 95° |
| 2026-05-05 01:10 | 61.21102 | -32.72132 | 41264 ft | 538 kts | 95° |
| 2026-05-05 01:11 | 61.20060 | -32.56725 | 41274 ft | 539 kts | 95° |
| 2026-05-05 01:11 | 61.19006 | -32.41397 | 41277 ft | 540 kts | 96° |
| 2026-05-05 01:12 | 61.17927 | -32.25978 | 41278 ft | 541 kts | 96° |
| 2026-05-05 01:12 | 61.16828 | -32.10523 | 41288 ft | 542 kts | 96° |
| 2026-05-05 01:13 | 61.15713 | -31.95128 | 41286 ft | 539 kts | 96° |
| 2026-05-05 01:13 | 61.14585 | -31.79776 | 41290 ft | 538 kts | 96° |
| 2026-05-05 01:14 | 61.13634 | -31.67041 | 41287 ft | 539 kts | 96° |
| 2026-05-05 01:14 | 61.12474 | -31.51705 | 41287 ft | 539 kts | 96° |
| 2026-05-05 01:15 | 61.11295 | -31.36378 | 41286 ft | 540 kts | 97° |
| 2026-05-05 01:15 | 61.09902 | -31.18555 | 41297 ft | 541 kts | 97° |
| 2026-05-05 01:16 | 61.08880 | -31.05683 | 41300 ft | 541 kts | 97° |
| 2026-05-05 01:16 | 61.07645 | -30.90345 | 41300 ft | 541 kts | 97° |
| 2026-05-05 01:17 | 61.06396 | -30.75040 | 41301 ft | 540 kts | 97° |
| 2026-05-05 01:17 | 61.05129 | -30.59759 | 41304 ft | 539 kts | 97° |
| 2026-05-05 01:18 | 61.03856 | -30.44603 | 41302 ft | 539 kts | 97° |
| 2026-05-05 01:18 | 61.02557 | -30.29373 | 41309 ft | 540 kts | 98° |
| 2026-05-05 01:19 | 61.01230 | -30.14023 | 41310 ft | 541 kts | 98° |
| 2026-05-05 01:19 | 60.99885 | -29.98881 | 41313 ft | 542 kts | 102° |
| 2026-05-05 01:20 | 60.98244 | -29.83734 | 41313 ft | 542 kts | 100° |
| 2026-05-05 01:20 | 60.96610 | -29.68570 | 41317 ft | 543 kts | 101° |
| 2026-05-05 01:21 | 60.94927 | -29.53423 | 41321 ft | 542 kts | 101° |
| 2026-05-05 01:21 | 60.93258 | -29.38317 | 41319 ft | 541 kts | 101° |
| 2026-05-05 01:22 | 60.91558 | -29.23289 | 41318 ft | 540 kts | 101° |
| 2026-05-05 01:22 | 60.89854 | -29.08264 | 41314 ft | 539 kts | 101° |
| 2026-05-05 01:23 | 60.88127 | -28.93281 | 41311 ft | 538 kts | 101° |
| 2026-05-05 01:23 | 60.86402 | -28.78422 | 41312 ft | 538 kts | 101° |
| 2026-05-05 01:24 | 60.84646 | -28.63490 | 41313 ft | 538 kts | 101° |
| 2026-05-05 01:24 | 60.82872 | -28.48539 | 41322 ft | 540 kts | 102° |
| 2026-05-05 01:25 | 60.81077 | -28.33580 | 41322 ft | 540 kts | 102° |
| 2026-05-05 01:25 | 60.79267 | -28.18646 | 41323 ft | 540 kts | 102° |
| 2026-05-05 01:26 | 60.77441 | -28.03739 | 41314 ft | 539 kts | 102° |
| 2026-05-05 01:26 | 60.75606 | -27.88900 | 41314 ft | 538 kts | 102° |
| 2026-05-05 01:27 | 60.73756 | -27.74098 | 41312 ft | 538 kts | 102° |
| 2026-05-05 01:27 | 60.71884 | -27.59260 | 41331 ft | 540 kts | 103° |
| 2026-05-05 01:28 | 60.70000 | -27.44484 | 41331 ft | 541 kts | 103° |
| 2026-05-05 01:28 | 60.68086 | -27.29612 | 41333 ft | 541 kts | 103° |
| 2026-05-05 01:29 | 60.66153 | -27.14735 | 41317 ft | 541 kts | 103° |
| 2026-05-05 01:29 | 60.64224 | -27.00041 | 41315 ft | 539 kts | 103° |
| 2026-05-05 01:30 | 60.62274 | -26.85322 | 41323 ft | 538 kts | 103° |
| 2026-05-05 01:30 | 60.60307 | -26.70611 | 41346 ft | 540 kts | 104° |
| 2026-05-05 01:31 | 60.58314 | -26.55852 | 41336 ft | 541 kts | 104° |
| 2026-05-05 01:31 | 60.56306 | -26.41118 | 41334 ft | 540 kts | 104° |
| 2026-05-05 01:32 | 60.54281 | -26.26400 | 41334 ft | 540 kts | 104° |
| 2026-05-05 01:32 | 60.52243 | -26.11715 | 41320 ft | 539 kts | 104° |
| 2026-05-05 01:33 | 60.50192 | -25.97076 | 41317 ft | 538 kts | 104° |
| 2026-05-05 01:33 | 60.48144 | -25.82590 | 41345 ft | 537 kts | 104° |
| 2026-05-05 01:34 | 60.46070 | -25.68047 | 41333 ft | 538 kts | 105° |
| 2026-05-05 01:34 | 60.43976 | -25.53492 | 41335 ft | 538 kts | 105° |
| 2026-05-05 01:35 | 60.41863 | -25.38945 | 41337 ft | 539 kts | 105° |
| 2026-05-05 01:35 | 60.39732 | -25.24393 | 41327 ft | 539 kts | 105° |
| 2026-05-05 01:36 | 60.37586 | -25.09864 | 41328 ft | 538 kts | 105° |
| 2026-05-05 01:36 | 60.35427 | -24.95375 | 41327 ft | 538 kts | 105° |
| 2026-05-05 01:37 | 60.33254 | -24.80919 | 41322 ft | 538 kts | 106° |
| 2026-05-05 01:37 | 60.31078 | -24.66567 | 41321 ft | 538 kts | 106° |
| 2026-05-05 01:38 | 60.28862 | -24.52069 | 41322 ft | 538 kts | 106° |
| 2026-05-05 01:38 | 60.26650 | -24.37727 | 41338 ft | 538 kts | 106° |
| 2026-05-05 01:39 | 60.24414 | -24.23344 | 41337 ft | 537 kts | 106° |
| 2026-05-05 01:39 | 60.22167 | -24.09008 | 41335 ft | 537 kts | 106° |
| 2026-05-05 01:40 | 60.19903 | -23.94681 | 41332 ft | 538 kts | 107° |
| 2026-05-05 01:40 | 60.17633 | -23.80440 | 41334 ft | 538 kts | 107° |
| 2026-05-05 01:41 | 60.15319 | -23.66036 | 41337 ft | 539 kts | 107° |
| 2026-05-05 01:41 | 60.13015 | -23.51810 | 41345 ft | 540 kts | 107° |
| 2026-05-05 01:42 | 60.10679 | -23.37497 | 41325 ft | 538 kts | 107° |
| 2026-05-05 01:42 | 60.08339 | -23.23279 | 41332 ft | 536 kts | 107° |
| 2026-05-05 01:43 | 60.05987 | -23.09098 | 41340 ft | 537 kts | 107° |
| 2026-05-05 01:43 | 60.03615 | -22.94910 | 41353 ft | 538 kts | 108° |
| 2026-05-05 01:44 | 60.01218 | -22.80684 | 41344 ft | 540 kts | 108° |
| 2026-05-05 01:44 | 59.98804 | -22.66474 | 41348 ft | 539 kts | 108° |
| 2026-05-05 01:45 | 59.96384 | -22.52332 | 41323 ft | 537 kts | 108° |
| 2026-05-05 01:45 | 59.93974 | -22.38356 | 41318 ft | 535 kts | 108° |
| 2026-05-05 01:46 | 59.91533 | -22.24307 | 41338 ft | 537 kts | 108° |
| 2026-05-05 01:46 | 59.89068 | -22.10230 | 41337 ft | 538 kts | 108° |
| 2026-05-05 01:47 | 59.86584 | -21.96148 | 41338 ft | 539 kts | 109° |
| 2026-05-05 01:47 | 59.84087 | -21.82101 | 41334 ft | 538 kts | 109° |
| 2026-05-05 01:48 | 59.81581 | -21.68109 | 41331 ft | 537 kts | 109° |
| 2026-05-05 01:48 | 59.79064 | -21.54154 | 41332 ft | 536 kts | 109° |
| 2026-05-05 01:49 | 59.76546 | -21.40299 | 41329 ft | 536 kts | 109° |
| 2026-05-05 01:49 | 59.73998 | -21.26380 | 41333 ft | 537 kts | 109° |
| 2026-05-05 01:50 | 59.71429 | -21.12452 | 41329 ft | 539 kts | 109° |
| 2026-05-05 01:50 | 59.68839 | -20.98505 | 41332 ft | 540 kts | 109° |
| 2026-05-05 01:51 | 59.66230 | -20.84562 | 41313 ft | 539 kts | 110° |
| 2026-05-05 01:51 | 59.63619 | -20.70711 | 41307 ft | 536 kts | 110° |
| 2026-05-05 01:52 | 59.61000 | -20.56908 | 41312 ft | 536 kts | 110° |
| 2026-05-05 01:52 | 59.58367 | -20.43133 | 41310 ft | 536 kts | 110° |
| 2026-05-05 01:53 | 59.55736 | -20.29469 | 41313 ft | 536 kts | 110° |
| 2026-05-05 01:53 | 59.53075 | -20.15739 | 41314 ft | 536 kts | 110° |
| 2026-05-05 01:54 | 59.50397 | -20.02017 | 41296 ft | 537 kts | 110° |
| 2026-05-05 01:54 | 59.47706 | -19.88318 | 41310 ft | 535 kts | 110° |
| 2026-05-05 01:55 | 59.45015 | -19.74699 | 41317 ft | 535 kts | 111° |
| 2026-05-05 01:55 | 59.42300 | -19.61057 | 41316 ft | 537 kts | 111° |
| 2026-05-05 01:56 | 59.39562 | -19.47390 | 41312 ft | 538 kts | 111° |
| 2026-05-05 01:56 | 59.36808 | -19.33745 | 41313 ft | 538 kts | 111° |
| 2026-05-05 01:57 | 59.34045 | -19.20140 | 41306 ft | 536 kts | 111° |
| 2026-05-05 01:57 | 59.31278 | -19.06610 | 41279 ft | 534 kts | 111° |
| 2026-05-05 01:58 | 59.28973 | -18.95406 | 41292 ft | 534 kts | 111° |
| 2026-05-05 01:58 | 59.26178 | -18.81904 | 41294 ft | 536 kts | 111° |
| 2026-05-05 01:59 | 59.22900 | -18.66181 | 41301 ft | 538 kts | 112° |
| 2026-05-05 01:59 | 59.20542 | -18.54949 | 41301 ft | 537 kts | 112° |
| 2026-05-05 02:00 | 59.17701 | -18.41493 | 41287 ft | 536 kts | 112° |
| 2026-05-05 02:00 | 59.14849 | -18.28074 | 41275 ft | 535 kts | 112° |
| 2026-05-05 02:01 | 59.11988 | -18.14700 | 41274 ft | 534 kts | 112° |
| 2026-05-05 02:01 | 59.09111 | -18.01335 | 41280 ft | 536 kts | 112° |
| 2026-05-05 02:02 | 59.06211 | -17.87954 | 41285 ft | 537 kts | 112° |
| 2026-05-05 02:02 | 59.03296 | -17.74586 | 41269 ft | 537 kts | 112° |
| 2026-05-05 02:03 | 59.00376 | -17.61284 | 41267 ft | 535 kts | 113° |
| 2026-05-05 02:03 | 58.97466 | -17.48109 | 41248 ft | 533 kts | 113° |
| 2026-05-05 02:04 | 58.94534 | -17.34916 | 41260 ft | 534 kts | 113° |
| 2026-05-05 02:04 | 58.91575 | -17.21686 | 41246 ft | 537 kts | 113° |
| 2026-05-05 02:05 | 58.88593 | -17.08440 | 41246 ft | 536 kts | 113° |
| 2026-05-05 02:05 | 58.85610 | -16.95270 | 41244 ft | 534 kts | 114° |
| 2026-05-05 02:06 | 58.82624 | -16.82166 | 41237 ft | 533 kts | 114° |
| 2026-05-05 02:06 | 58.79617 | -16.69054 | 41228 ft | 534 kts | 114° |
| 2026-05-05 02:07 | 58.76617 | -16.56052 | 41233 ft | 534 kts | 114° |
| 2026-05-05 02:07 | 58.73589 | -16.43004 | 41231 ft | 534 kts | 114° |
| 2026-05-05 02:08 | 58.70544 | -16.29964 | 41224 ft | 534 kts | 114° |
| 2026-05-05 02:08 | 58.67486 | -16.16950 | 41228 ft | 534 kts | 114° |
| 2026-05-05 02:09 | 58.64407 | -16.03925 | 41226 ft | 534 kts | 114° |
| 2026-05-05 02:09 | 58.61319 | -15.90942 | 41210 ft | 534 kts | 114° |
| 2026-05-05 02:10 | 58.58244 | -15.78089 | 41223 ft | 533 kts | 115° |
| 2026-05-05 02:10 | 58.55121 | -15.65113 | 41214 ft | 533 kts | 115° |
| 2026-05-05 02:11 | 58.52025 | -15.52320 | 41215 ft | 533 kts | 115° |
| 2026-05-05 02:11 | 58.48896 | -15.39473 | 41214 ft | 533 kts | 115° |
| 2026-05-05 02:12 | 58.44173 | -15.20220 | 41210 ft | 533 kts | 115° |
| 2026-05-05 02:13 | 58.41032 | -15.07506 | 41217 ft | 532 kts | 115° |
| 2026-05-05 02:13 | 58.37863 | -14.94759 | 41213 ft | 532 kts | 115° |
| 2026-05-05 02:14 | 58.34681 | -14.82029 | 41213 ft | 532 kts | 115° |
| 2026-05-05 02:14 | 58.31481 | -14.69303 | 41211 ft | 533 kts | 116° |
| 2026-05-05 02:15 | 58.28270 | -14.56602 | 41211 ft | 533 kts | 116° |
| 2026-05-05 02:15 | 58.25039 | -14.43900 | 41207 ft | 533 kts | 116° |
| 2026-05-05 02:16 | 58.21818 | -14.31307 | 41207 ft | 533 kts | 116° |
| 2026-05-05 02:16 | 58.18570 | -14.18679 | 41207 ft | 532 kts | 116° |
| 2026-05-05 02:17 | 58.15312 | -14.06085 | 41203 ft | 532 kts | 116° |
| 2026-05-05 02:17 | 58.12043 | -13.93520 | 41203 ft | 532 kts | 116° |
| 2026-05-05 02:18 | 58.08762 | -13.80980 | 41197 ft | 531 kts | 116° |
| 2026-05-05 02:18 | 58.05471 | -13.68469 | 41196 ft | 531 kts | 116° |
| 2026-05-05 02:19 | 58.02170 | -13.55991 | 41190 ft | 531 kts | 117° |
| 2026-05-05 02:19 | 57.98851 | -13.43513 | 41191 ft | 532 kts | 117° |
| 2026-05-05 02:20 | 57.95514 | -13.31038 | 41194 ft | 533 kts | 117° |
| 2026-05-05 02:20 | 57.92181 | -13.18646 | 41189 ft | 534 kts | 117° |
| 2026-05-05 02:21 | 57.88807 | -13.06171 | 41188 ft | 534 kts | 117° |
| 2026-05-05 02:21 | 57.85426 | -12.93737 | 41178 ft | 533 kts | 117° |
| 2026-05-05 02:22 | 57.82046 | -12.81374 | 41161 ft | 531 kts | 117° |
| 2026-05-05 02:22 | 57.78668 | -12.69087 | 41160 ft | 530 kts | 117° |
| 2026-05-05 02:23 | 57.75271 | -12.56797 | 41163 ft | 531 kts | 117° |
| 2026-05-05 02:23 | 57.71854 | -12.44501 | 41165 ft | 533 kts | 117° |
| 2026-05-05 02:24 | 57.68440 | -12.32281 | 41169 ft | 533 kts | 118° |
| 2026-05-05 02:24 | 57.64999 | -12.20027 | 41168 ft | 532 kts | 118° |
| 2026-05-05 02:25 | 57.61554 | -12.07828 | 41151 ft | 530 kts | 118° |
| 2026-05-05 02:25 | 57.58116 | -11.95715 | 41152 ft | 528 kts | 118° |
| 2026-05-05 02:26 | 57.54660 | -11.83606 | 41151 ft | 530 kts | 118° |
| 2026-05-05 02:26 | 57.51187 | -11.71497 | 41154 ft | 531 kts | 118° |
| 2026-05-05 02:27 | 57.47693 | -11.59380 | 41156 ft | 532 kts | 118° |
| 2026-05-05 02:27 | 57.44178 | -11.47255 | 41154 ft | 533 kts | 118° |
| 2026-05-05 02:28 | 57.40657 | -11.35173 | 41139 ft | 531 kts | 118° |
| 2026-05-05 02:28 | 57.37141 | -11.23169 | 41136 ft | 528 kts | 119° |
| 2026-05-05 02:29 | 57.33628 | -11.11235 | 41132 ft | 528 kts | 119° |
| 2026-05-05 02:29 | 57.30100 | -10.99315 | 41130 ft | 528 kts | 119° |
| 2026-05-05 02:30 | 57.26559 | -10.87411 | 41135 ft | 529 kts | 119° |
| 2026-05-05 02:30 | 57.23001 | -10.75508 | 41137 ft | 529 kts | 119° |
| 2026-05-05 02:31 | 57.19446 | -10.63679 | 41131 ft | 531 kts | 119° |
| 2026-05-05 02:31 | 57.15864 | -10.51817 | 41130 ft | 528 kts | 119° |
| 2026-05-05 02:32 | 57.12279 | -10.40006 | 41127 ft | 528 kts | 120° |
| 2026-05-05 02:32 | 57.08684 | -10.28222 | 41125 ft | 527 kts | 120° |
| 2026-05-05 02:33 | 57.05088 | -10.16494 | 41114 ft | 527 kts | 120° |
| 2026-05-05 02:33 | 57.01475 | -10.04767 | 41123 ft | 527 kts | 120° |
| 2026-05-05 02:33 | 56.99887 | -9.98713 | 41151 ft | 527 kts | 108° |
| 2026-05-05 02:34 | 56.98845 | -9.92260 | 41130 ft | 528 kts | 105° |
| 2026-05-05 02:34 | 56.96935 | -9.79326 | 41130 ft | 527 kts | 105° |
| 2026-05-05 02:35 | 56.94981 | -9.66360 | 41124 ft | 527 kts | 105° |
| 2026-05-05 02:35 | 56.92815 | -9.53546 | 41145 ft | 526 kts | 116° |
| 2026-05-05 02:35 | 56.90998 | -9.47738 | 41150 ft | 526 kts | 127° |
| 2026-05-05 02:36 | 56.88637 | -9.42634 | 41147 ft | 526 kts | 135° |
| 2026-05-05 02:36 | 56.83537 | -9.32964 | 41122 ft | 527 kts | 135° |
| 2026-05-05 02:37 | 56.78440 | -9.23351 | 41122 ft | 525 kts | 135° |
| 2026-05-05 02:37 | 56.73401 | -9.13863 | 41110 ft | 523 kts | 135° |
| 2026-05-05 02:38 | 56.68314 | -9.04350 | 41113 ft | 525 kts | 135° |
| 2026-05-05 02:38 | 56.63199 | -8.94801 | 41112 ft | 527 kts | 135° |
| 2026-05-05 02:39 | 56.58069 | -8.85280 | 41123 ft | 528 kts | 135° |
| 2026-05-05 02:39 | 56.52943 | -8.75793 | 41094 ft | 526 kts | 135° |
| 2026-05-05 02:40 | 56.47860 | -8.66433 | 41108 ft | 523 kts | 135° |
| 2026-05-05 02:40 | 56.42742 | -8.57042 | 41113 ft | 525 kts | 135° |
| 2026-05-05 02:41 | 56.37603 | -8.47653 | 41110 ft | 526 kts | 136° |
| 2026-05-05 02:41 | 56.32452 | -8.38281 | 41109 ft | 526 kts | 136° |
| 2026-05-05 02:42 | 56.27286 | -8.28918 | 41091 ft | 525 kts | 136° |
| 2026-05-05 02:42 | 56.22147 | -8.19642 | 41089 ft | 523 kts | 136° |
| 2026-05-05 02:43 | 56.17874 | -8.11959 | 41094 ft | 522 kts | 136° |
| 2026-05-05 02:43 | 56.11889 | -8.01239 | 41091 ft | 523 kts | 136° |
| 2026-05-05 02:44 | 56.06734 | -7.92046 | 41097 ft | 524 kts | 136° |
| 2026-05-05 02:44 | 56.01566 | -7.82867 | 41087 ft | 522 kts | 136° |
| 2026-05-05 02:45 | 55.96407 | -7.73740 | 41090 ft | 521 kts | 136° |
| 2026-05-05 02:45 | 55.92124 | -7.66189 | 41081 ft | 521 kts | 136° |
| 2026-05-05 02:46 | 55.86960 | -7.57120 | 41082 ft | 521 kts | 136° |
| 2026-05-05 02:46 | 55.81780 | -7.48057 | 41087 ft | 521 kts | 136° |
| 2026-05-05 02:47 | 55.76606 | -7.39041 | 41080 ft | 521 kts | 136° |
| 2026-05-05 02:47 | 55.71422 | -7.30042 | 41086 ft | 522 kts | 137° |
| 2026-05-05 02:48 | 55.66250 | -7.21101 | 41088 ft | 522 kts | 137° |
| 2026-05-05 02:48 | 55.61043 | -7.12133 | 41091 ft | 523 kts | 137° |
| 2026-05-05 02:49 | 55.55820 | -7.03173 | 41079 ft | 522 kts | 137° |
| 2026-05-05 02:49 | 55.50618 | -6.94284 | 41076 ft | 520 kts | 137° |
| 2026-05-05 02:50 | 55.45416 | -6.85429 | 41070 ft | 519 kts | 137° |
| 2026-05-05 02:50 | 55.40246 | -6.76663 | 41069 ft | 519 kts | 137° |
| 2026-05-05 02:51 | 55.35033 | -6.67857 | 41075 ft | 519 kts | 137° |
| 2026-05-05 02:51 | 55.29823 | -6.59089 | 41086 ft | 519 kts | 137° |
| 2026-05-05 02:52 | 55.24600 | -6.50335 | 41089 ft | 520 kts | 137° |
| 2026-05-05 02:52 | 55.19351 | -6.41569 | 41091 ft | 521 kts | 137° |
| 2026-05-05 02:53 | 55.14128 | -6.32882 | 41082 ft | 521 kts | 137° |
| 2026-05-05 02:53 | 55.08865 | -6.24159 | 41074 ft | 520 kts | 137° |
| 2026-05-05 02:54 | 55.03631 | -6.15519 | 41076 ft | 518 kts | 137° |
| 2026-05-05 02:54 | 54.98388 | -6.06897 | 41073 ft | 518 kts | 137° |
| 2026-05-05 02:55 | 54.93145 | -5.98306 | 41072 ft | 518 kts | 137° |
| 2026-05-05 02:55 | 54.87919 | -5.89775 | 41074 ft | 518 kts | 137° |
| 2026-05-05 02:56 | 54.82658 | -5.81220 | 41070 ft | 517 kts | 137° |
| 2026-05-05 02:56 | 54.77407 | -5.72712 | 41068 ft | 516 kts | 137° |
| 2026-05-05 02:57 | 54.72155 | -5.64235 | 41068 ft | 516 kts | 138° |
| 2026-05-05 02:57 | 54.66895 | -5.55776 | 41070 ft | 518 kts | 138° |
| 2026-05-05 02:58 | 54.61642 | -5.47360 | 41071 ft | 518 kts | 138° |
| 2026-05-05 02:58 | 54.56384 | -5.38965 | 41072 ft | 513 kts | 138° |
| 2026-05-05 02:59 | 54.51148 | -5.30638 | 41065 ft | 512 kts | 138° |
| 2026-05-05 02:59 | 54.45901 | -5.22324 | 41066 ft | 512 kts | 138° |
| 2026-05-05 03:00 | 54.40676 | -5.14074 | 41072 ft | 514 kts | 138° |
| 2026-05-05 03:00 | 54.35405 | -5.05783 | 41071 ft | 512 kts | 138° |
| 2026-05-05 03:01 | 54.30147 | -4.97541 | 41072 ft | 511 kts | 138° |
| 2026-05-05 03:01 | 54.24893 | -4.89335 | 41071 ft | 511 kts | 138° |
| 2026-05-05 03:02 | 54.19642 | -4.81164 | 41067 ft | 511 kts | 139° |
| 2026-05-05 03:02 | 54.14379 | -4.73004 | 41067 ft | 511 kts | 139° |
| 2026-05-05 03:03 | 54.09148 | -4.64921 | 41044 ft | 510 kts | 139° |
| 2026-05-05 03:03 | 54.03891 | -4.56829 | 41041 ft | 509 kts | 139° |
| 2026-05-05 03:04 | 53.98621 | -4.48743 | 41046 ft | 511 kts | 139° |
| 2026-05-05 03:04 | 53.93330 | -4.40656 | 41056 ft | 512 kts | 139° |
| 2026-05-05 03:05 | 53.88597 | -4.31672 | 41079 ft | 512 kts | 125° |
| 2026-05-05 03:05 | 53.84547 | -4.21720 | 41071 ft | 511 kts | 125° |
| 2026-05-05 03:06 | 53.80508 | -4.11904 | 41077 ft | 511 kts | 125° |
| 2026-05-05 03:06 | 53.76444 | -4.02041 | 41072 ft | 511 kts | 125° |
| 2026-05-05 03:07 | 53.72366 | -3.92187 | 41067 ft | 511 kts | 125° |
| 2026-05-05 03:07 | 53.68283 | -3.82364 | 41067 ft | 510 kts | 125° |
| 2026-05-05 03:08 | 53.64200 | -3.72574 | 41054 ft | 510 kts | 125° |
| 2026-05-05 03:08 | 53.60104 | -3.62796 | 41060 ft | 511 kts | 125° |
| 2026-05-05 03:09 | 53.56020 | -3.53080 | 41065 ft | 512 kts | 126° |
| 2026-05-05 03:09 | 53.51889 | -3.43291 | 41056 ft | 513 kts | 126° |
| 2026-05-05 03:10 | 53.47753 | -3.33529 | 41061 ft | 513 kts | 126° |
| 2026-05-05 03:10 | 53.43607 | -3.23781 | 41055 ft | 513 kts | 126° |
| 2026-05-05 03:11 | 53.39455 | -3.14055 | 41052 ft | 513 kts | 126° |
| 2026-05-05 03:11 | 53.35212 | -3.04446 | 41055 ft | 513 kts | 128° |
| 2026-05-05 03:12 | 53.30936 | -2.94907 | 41059 ft | 512 kts | 127° |
| 2026-05-05 03:12 | 53.26710 | -2.85412 | 41060 ft | 512 kts | 127° |
| 2026-05-05 03:13 | 53.22402 | -2.75852 | 41049 ft | 511 kts | 127° |
| 2026-05-05 03:13 | 53.18166 | -2.66429 | 41045 ft | 511 kts | 127° |
| 2026-05-05 03:14 | 53.13871 | -2.56961 | 41047 ft | 511 kts | 126° |
| 2026-05-05 03:14 | 53.09865 | -2.47168 | 41047 ft | 513 kts | 125° |
| 2026-05-05 03:15 | 53.05824 | -2.37370 | 41049 ft | 514 kts | 124° |
| 2026-05-05 03:15 | 53.01099 | -2.28565 | 41072 ft | 512 kts | 145° |
| 2026-05-05 03:16 | 52.95131 | -2.22134 | 41045 ft | 510 kts | 148° |
| 2026-05-05 03:16 | 52.89177 | -2.15929 | 41044 ft | 508 kts | 148° |
| 2026-05-05 03:17 | 52.83195 | -2.09669 | 41045 ft | 508 kts | 148° |
| 2026-05-05 03:17 | 52.77191 | -2.03435 | 41044 ft | 508 kts | 148° |
| 2026-05-05 03:18 | 52.71199 | -1.97216 | 41036 ft | 507 kts | 148° |
| 2026-05-05 03:18 | 52.65226 | -1.91048 | 41034 ft | 506 kts | 149° |
| 2026-05-05 03:19 | 52.56296 | -1.81857 | 41030 ft | 508 kts | 149° |
| 2026-05-05 03:19 | 52.50295 | -1.75707 | 41028 ft | 509 kts | 149° |
| 2026-05-05 03:20 | 52.44272 | -1.69554 | 41030 ft | 509 kts | 149° |
| 2026-05-05 03:20 | 52.38263 | -1.63436 | 41031 ft | 509 kts | 149° |
| 2026-05-05 03:21 | 52.32243 | -1.57326 | 41032 ft | 508 kts | 149° |
| 2026-05-05 03:21 | 52.26259 | -1.51273 | 41025 ft | 508 kts | 149° |
| 2026-05-05 03:22 | 52.20397 | -1.44880 | 41055 ft | 506 kts | 139° |
| 2026-05-05 03:22 | 52.15039 | -1.37372 | 41031 ft | 507 kts | 140° |
| 2026-05-05 03:23 | 52.09673 | -1.29901 | 41030 ft | 507 kts | 140° |
| 2026-05-05 03:23 | 52.04300 | -1.22444 | 41031 ft | 507 kts | 140° |
| 2026-05-05 03:24 | 51.98946 | -1.15032 | 41016 ft | 499 kts | 140° |
| 2026-05-05 03:24 | 51.96339 | -1.11435 | 41005 ft | 484 kts | 140° |
| 2026-05-05 03:24 | 51.93812 | -1.07952 | 41003 ft | 469 kts | 140° |
| 2026-05-05 03:25 | 51.91395 | -1.04622 | 41001 ft | 456 kts | 140° |
| 2026-05-05 03:25 | 51.89009 | -1.01340 | 40998 ft | 443 kts | 140° |
| 2026-05-05 03:25 | 51.86718 | -0.98136 | 40997 ft | 430 kts | 135° |
| 2026-05-05 03:25 | 51.84853 | -0.94456 | 41014 ft | 420 kts | 122° |
| 2026-05-05 03:26 | 51.82168 | -0.86023 | 41013 ft | 427 kts | 117° |
| 2026-05-05 03:26 | 51.79509 | -0.77321 | 41017 ft | 436 kts | 117° |
| 2026-05-05 03:27 | 51.76799 | -0.68515 | 41022 ft | 437 kts | 117° |
| 2026-05-05 03:27 | 51.74093 | -0.59749 | 41026 ft | 435 kts | 117° |
| 2026-05-05 03:28 | 51.71038 | -0.51456 | 41004 ft | 432 kts | 127° |
| 2026-05-05 03:28 | 51.67481 | -0.43601 | 41003 ft | 434 kts | 127° |
| 2026-05-05 03:29 | 51.63918 | -0.35714 | 41004 ft | 435 kts | 127° |
| 2026-05-05 03:29 | 51.60346 | -0.27865 | 40992 ft | 428 kts | 127° |
| 2026-05-05 03:30 | 51.58616 | -0.24110 | 40981 ft | 416 kts | 128° |
| 2026-05-05 03:30 | 51.56917 | -0.20430 | 40978 ft | 403 kts | 127° |
| 2026-05-05 03:30 | 51.55283 | -0.16854 | 40978 ft | 390 kts | 127° |
| 2026-05-05 03:30 | 51.53692 | -0.13399 | 40966 ft | 378 kts | 132° |
| 2026-05-05 03:31 | 51.51772 | -0.10656 | 40965 ft | 367 kts | 153° |
| 2026-05-05 03:31 | 51.49456 | -0.09014 | 41019 ft | 365 kts | 171° |
| 2026-05-05 03:31 | 51.46935 | -0.08735 | 41059 ft | 365 kts | 192° |
| 2026-05-05 03:31 | 51.44525 | -0.09946 | 41098 ft | 365 kts | 213° |
| 2026-05-05 03:32 | 51.42554 | -0.12476 | 41138 ft | 366 kts | 234° |
| 2026-05-05 03:32 | 51.41278 | -0.15986 | 41197 ft | 368 kts | 254° |
| 2026-05-05 03:32 | 51.40868 | -0.20036 | 41260 ft | 371 kts | 275° |
| 2026-05-05 03:32 | 51.41372 | -0.24019 | 41332 ft | 373 kts | 294° |
| 2026-05-05 03:33 | 51.43785 | -0.31554 | 41282 ft | 385 kts | 295° |
| 2026-05-05 03:33 | 51.45850 | -0.39506 | 41153 ft | 386 kts | 285° |
| 2026-05-05 03:34 | 51.46593 | -0.47883 | 41051 ft | 376 kts | 256° |
| 2026-05-05 03:34 | 51.45785 | -0.51843 | 41088 ft | 376 kts | 237° |
| 2026-05-05 03:34 | 51.44175 | -0.55143 | 41129 ft | 378 kts | 218° |
| 2026-05-05 03:35 | 51.42756 | -0.56766 | 41154 ft | 379 kts | 205° |
| 2026-05-05 03:35 | 51.40272 | -0.58163 | 41216 ft | 383 kts | 186° |
| 2026-05-05 03:35 | 51.36741 | -0.57926 | 41301 ft | 388 kts | 166° |
| 2026-05-05 03:35 | 51.34996 | -0.57050 | 41293 ft | 390 kts | 155° |
| 2026-05-05 03:36 | 51.32665 | -0.54869 | 41308 ft | 390 kts | 139° |
| 2026-05-05 03:36 | 51.30414 | -0.50437 | 41364 ft | 391 kts | 114° |
| 2026-05-05 03:36 | 51.29770 | -0.47678 | 41389 ft | 395 kts | 101° |
| 2026-05-05 03:36 | 51.29532 | -0.43300 | 41434 ft | 400 kts | 83° |
| 2026-05-05 03:37 | 51.30171 | -0.38960 | 41492 ft | 404 kts | 64° |
| 2026-05-05 03:37 | 51.31617 | -0.35124 | 41548 ft | 407 kts | 46° |
| 2026-05-05 03:37 | 51.33740 | -0.32146 | 41597 ft | 407 kts | 28° |
| 2026-05-05 03:37 | 51.36319 | -0.30337 | 41658 ft | 405 kts | 10° |
| 2026-05-05 03:38 | 51.39067 | -0.29860 | 41701 ft | 403 kts | 352° |
| 2026-05-05 03:38 | 51.41796 | -0.30744 | 41754 ft | 401 kts | 334° |
| 2026-05-05 03:38 | 51.44210 | -0.32910 | 41802 ft | 399 kts | 316° |
| 2026-05-05 03:38 | 51.46104 | -0.36195 | 41855 ft | 397 kts | 298° |
| 2026-05-05 03:39 | 51.47251 | -0.40203 | 41915 ft | 395 kts | 281° |
| 2026-05-05 03:39 | 51.47568 | -0.44501 | 41959 ft | 394 kts | 263° |
| 2026-05-05 03:39 | 51.47040 | -0.48793 | 42032 ft | 393 kts | 245° |
| 2026-05-05 03:39 | 51.45713 | -0.52613 | 42089 ft | 393 kts | 228° |
| 2026-05-05 03:40 | 51.43712 | -0.55596 | 42138 ft | 394 kts | 210° |
| 2026-05-05 03:40 | 51.41232 | -0.57455 | 42196 ft | 396 kts | 193° |
| 2026-05-05 03:40 | 51.38501 | -0.58024 | 42239 ft | 398 kts | 175° |
| 2026-05-05 03:40 | 51.35779 | -0.57243 | 42296 ft | 400 kts | 158° |
| 2026-05-05 03:41 | 51.33315 | -0.55182 | 42350 ft | 403 kts | 141° |
| 2026-05-05 03:41 | 51.31326 | -0.52018 | 42406 ft | 405 kts | 126° |
| 2026-05-05 03:41 | 51.28232 | -0.44473 | 42275 ft | 403 kts | 125° |
| 2026-05-05 03:42 | 51.26646 | -0.40828 | 42169 ft | 397 kts | 129° |
| 2026-05-05 03:42 | 51.24919 | -0.37437 | 42042 ft | 392 kts | 134° |
| 2026-05-05 03:42 | 51.23019 | -0.34408 | 41923 ft | 389 kts | 143° |
| 2026-05-05 03:42 | 51.20797 | -0.31893 | 41837 ft | 386 kts | 151° |
| 2026-05-05 03:43 | 51.18488 | -0.29791 | 41730 ft | 387 kts | 152° |
| 2026-05-05 03:43 | 51.16148 | -0.27667 | 41615 ft | 388 kts | 149° |
| 2026-05-05 03:43 | 51.13869 | -0.25271 | 41499 ft | 387 kts | 146° |
| 2026-05-05 03:43 | 51.11688 | -0.22871 | 41388 ft | 385 kts | 148° |
| 2026-05-05 03:44 | 51.09445 | -0.20548 | 41264 ft | 383 kts | 149° |
| 2026-05-05 03:44 | 51.07390 | -0.18487 | 41147 ft | 382 kts | 149° |
| 2026-05-05 03:44 | 51.05170 | -0.16217 | 41031 ft | 380 kts | 148° |
| 2026-05-05 03:44 | 51.03259 | -0.14228 | 40994 ft | 377 kts | 148° |
| 2026-05-05 03:45 | 50.98874 | -0.09710 | 40991 ft | 376 kts | 148° |
| 2026-05-05 03:45 | 50.94441 | -0.05171 | 41007 ft | 380 kts | 148° |
| 2026-05-05 03:46 | 50.89997 | -0.00617 | 40997 ft | 380 kts | 148° |
| 2026-05-05 03:46 | 50.85597 | 0.03873 | 40987 ft | 378 kts | 149° |
| 2026-05-05 03:47 | 50.81181 | 0.08373 | 40982 ft | 376 kts | 149° |
| 2026-05-05 03:47 | 50.76774 | 0.12851 | 40983 ft | 377 kts | 149° |
| 2026-05-05 03:48 | 50.72352 | 0.17337 | 40988 ft | 378 kts | 149° |
| 2026-05-05 03:48 | 50.67912 | 0.21829 | 40985 ft | 378 kts | 149° |
| 2026-05-05 03:49 | 50.63477 | 0.26307 | 40989 ft | 377 kts | 149° |
| 2026-05-05 03:49 | 50.59106 | 0.30709 | 40975 ft | 374 kts | 149° |
| 2026-05-05 03:50 | 50.54717 | 0.35119 | 40970 ft | 375 kts | 149° |
| 2026-05-05 03:50 | 50.50313 | 0.39536 | 40967 ft | 375 kts | 149° |
| 2026-05-05 03:51 | 50.45901 | 0.43949 | 40972 ft | 376 kts | 149° |
| 2026-05-05 03:51 | 50.41494 | 0.48349 | 40960 ft | 375 kts | 149° |
| 2026-05-05 03:52 | 50.37103 | 0.52723 | 40960 ft | 372 kts | 149° |
| 2026-05-05 03:52 | 50.32738 | 0.57059 | 40957 ft | 372 kts | 149° |
| 2026-05-05 03:53 | 50.28363 | 0.61398 | 40960 ft | 372 kts | 150° |
| 2026-05-05 03:53 | 50.24015 | 0.65697 | 40966 ft | 372 kts | 150° |
| 2026-05-05 03:54 | 50.19643 | 0.70019 | 40966 ft | 371 kts | 150° |
| 2026-05-05 03:54 | 50.15295 | 0.74300 | 40963 ft | 368 kts | 150° |
| 2026-05-05 03:55 | 50.10968 | 0.78553 | 40948 ft | 367 kts | 150° |
| 2026-05-05 03:55 | 50.06633 | 0.82807 | 40951 ft | 370 kts | 150° |
| 2026-05-05 03:56 | 50.02254 | 0.87090 | 40954 ft | 372 kts | 150° |
| 2026-05-05 03:56 | 49.97856 | 0.91386 | 40953 ft | 374 kts | 150° |
| 2026-05-05 03:57 | 49.93481 | 0.95649 | 40944 ft | 373 kts | 150° |
| 2026-05-05 03:57 | 49.89093 | 0.99916 | 40941 ft | 372 kts | 150° |
| 2026-05-05 03:58 | 49.84710 | 1.04168 | 40936 ft | 371 kts | 150° |
| 2026-05-05 03:58 | 49.80334 | 1.08405 | 40935 ft | 370 kts | 150° |
| 2026-05-05 03:59 | 49.75966 | 1.12625 | 40929 ft | 370 kts | 150° |
| 2026-05-05 03:59 | 49.71611 | 1.16822 | 40926 ft | 370 kts | 150° |
| 2026-05-05 04:00 | 49.67246 | 1.21021 | 40922 ft | 369 kts | 150° |
| 2026-05-05 04:00 | 49.62885 | 1.25207 | 40920 ft | 369 kts | 150° |
| 2026-05-05 04:01 | 49.58520 | 1.29388 | 40913 ft | 369 kts | 150° |
| 2026-05-05 04:01 | 49.54162 | 1.33552 | 40909 ft | 369 kts | 150° |
| 2026-05-05 04:02 | 49.49802 | 1.37710 | 40916 ft | 369 kts | 150° |
| 2026-05-05 04:02 | 49.45412 | 1.41888 | 40927 ft | 372 kts | 150° |
| 2026-05-05 04:03 | 49.41007 | 1.46072 | 40924 ft | 372 kts | 150° |
| 2026-05-05 04:03 | 49.36596 | 1.50251 | 40923 ft | 372 kts | 150° |
| 2026-05-05 04:04 | 49.32218 | 1.54391 | 40920 ft | 371 kts | 150° |
| 2026-05-05 04:04 | 49.27818 | 1.58543 | 40914 ft | 371 kts | 150° |
| 2026-05-05 04:05 | 49.23416 | 1.62687 | 40911 ft | 371 kts | 150° |
| 2026-05-05 04:05 | 49.19013 | 1.66825 | 40912 ft | 372 kts | 150° |
| 2026-05-05 04:06 | 49.14597 | 1.70966 | 40906 ft | 373 kts | 150° |
| 2026-05-05 04:06 | 49.10174 | 1.75105 | 40909 ft | 373 kts | 150° |
| 2026-05-05 04:07 | 49.05750 | 1.79235 | 40897 ft | 373 kts | 150° |
| 2026-05-05 04:07 | 49.01336 | 1.83346 | 40897 ft | 374 kts | 150° |
| 2026-05-05 04:08 | 48.96906 | 1.87466 | 40893 ft | 373 kts | 151° |
| 2026-05-05 04:08 | 48.92491 | 1.91563 | 40881 ft | 371 kts | 151° |
| 2026-05-05 04:09 | 48.88086 | 1.95640 | 40884 ft | 370 kts | 151° |
| 2026-05-05 04:09 | 48.83679 | 1.99712 | 40877 ft | 371 kts | 151° |
| 2026-05-05 04:10 | 48.79249 | 2.03796 | 40878 ft | 372 kts | 151° |
| 2026-05-05 04:10 | 48.74818 | 2.07873 | 40886 ft | 373 kts | 151° |
| 2026-05-05 04:11 | 48.70369 | 2.11958 | 40891 ft | 374 kts | 151° |
| 2026-05-05 04:11 | 48.65924 | 2.16030 | 40890 ft | 372 kts | 151° |
| 2026-05-05 04:12 | 48.61494 | 2.20081 | 40878 ft | 371 kts | 151° |
| 2026-05-05 04:12 | 48.57118 | 2.24073 | 40878 ft | 371 kts | 151° |
| 2026-05-05 04:13 | 48.52696 | 2.28099 | 40879 ft | 371 kts | 151° |
| 2026-05-05 04:13 | 48.48274 | 2.32118 | 40875 ft | 371 kts | 151° |
| 2026-05-05 04:14 | 48.43846 | 2.36133 | 40873 ft | 371 kts | 151° |
| 2026-05-05 04:14 | 48.39413 | 2.40145 | 40871 ft | 371 kts | 152° |
| 2026-05-05 04:15 | 48.34975 | 2.44153 | 40872 ft | 372 kts | 152° |
| 2026-05-05 04:15 | 48.30570 | 2.48123 | 40874 ft | 372 kts | 152° |
| 2026-05-05 04:16 | 48.26135 | 2.52111 | 40865 ft | 371 kts | 152° |
| 2026-05-05 04:16 | 48.21710 | 2.56083 | 40867 ft | 371 kts | 152° |
| 2026-05-05 04:17 | 48.17286 | 2.60046 | 40882 ft | 370 kts | 152° |
| 2026-05-05 04:17 | 48.12851 | 2.64010 | 40880 ft | 371 kts | 152° |
| 2026-05-05 04:18 | 48.08415 | 2.67968 | 40871 ft | 371 kts | 152° |
| 2026-05-05 04:18 | 48.04001 | 2.71897 | 40876 ft | 371 kts | 152° |
| 2026-05-05 04:19 | 47.99569 | 2.75836 | 40874 ft | 371 kts | 152° |
| 2026-05-05 04:19 | 47.95128 | 2.79773 | 40870 ft | 371 kts | 152° |
| 2026-05-05 04:20 | 47.90684 | 2.83706 | 40871 ft | 372 kts | 152° |
| 2026-05-05 04:20 | 47.86978 | 2.86978 | 40871 ft | 372 kts | 152° |
| 2026-05-05 04:21 | 47.81771 | 2.91568 | 40871 ft | 372 kts | 152° |
| 2026-05-05 04:21 | 47.77314 | 2.95490 | 40854 ft | 372 kts | 152° |
| 2026-05-05 04:22 | 47.72855 | 2.99403 | 40850 ft | 372 kts | 152° |
| 2026-05-05 04:22 | 47.68418 | 3.03289 | 40848 ft | 373 kts | 152° |
| 2026-05-05 04:23 | 47.64692 | 3.06548 | 40852 ft | 373 kts | 153° |
| 2026-05-05 04:23 | 47.60224 | 3.10447 | 40851 ft | 373 kts | 153° |
| 2026-05-05 04:24 | 47.55756 | 3.14339 | 40850 ft | 372 kts | 153° |
| 2026-05-05 04:25 | 47.49074 | 3.20146 | 40849 ft | 371 kts | 153° |
| 2026-05-05 04:25 | 47.44620 | 3.24006 | 40848 ft | 371 kts | 153° |
| 2026-05-05 04:26 | 47.40195 | 3.27834 | 40852 ft | 371 kts | 153° |
| 2026-05-05 04:26 | 47.35737 | 3.31683 | 40850 ft | 371 kts | 153° |
| 2026-05-05 04:27 | 47.31287 | 3.35516 | 40854 ft | 371 kts | 153° |
| 2026-05-05 04:27 | 47.26803 | 3.39372 | 40859 ft | 374 kts | 153° |
| 2026-05-05 04:28 | 47.22307 | 3.43231 | 40862 ft | 373 kts | 153° |
| 2026-05-05 04:28 | 47.17821 | 3.47074 | 40867 ft | 372 kts | 153° |
| 2026-05-05 04:29 | 47.13380 | 3.50869 | 40859 ft | 371 kts | 153° |
| 2026-05-05 04:29 | 47.08920 | 3.54675 | 40856 ft | 370 kts | 153° |
| 2026-05-05 04:30 | 47.04458 | 3.58474 | 40856 ft | 371 kts | 153° |
| 2026-05-05 04:30 | 46.99991 | 3.62270 | 40864 ft | 371 kts | 153° |
| 2026-05-05 04:31 | 46.95512 | 3.66068 | 40863 ft | 372 kts | 153° |
| 2026-05-05 04:31 | 46.91035 | 3.69859 | 40860 ft | 372 kts | 154° |
| 2026-05-05 04:32 | 46.86560 | 3.73639 | 40863 ft | 371 kts | 154° |
| 2026-05-05 04:32 | 46.82125 | 3.77380 | 40865 ft | 370 kts | 154° |
| 2026-05-05 04:33 | 46.77659 | 3.81138 | 40871 ft | 369 kts | 154° |
| 2026-05-05 04:33 | 46.73196 | 3.84886 | 40866 ft | 370 kts | 154° |
| 2026-05-05 04:34 | 46.68725 | 3.88635 | 40873 ft | 371 kts | 154° |
| 2026-05-05 04:34 | 46.64266 | 3.92366 | 40880 ft | 372 kts | 154° |
| 2026-05-05 04:35 | 46.59775 | 3.96117 | 40888 ft | 373 kts | 154° |
| 2026-05-05 04:35 | 46.55272 | 3.99870 | 40887 ft | 373 kts | 154° |
| 2026-05-05 04:36 | 46.50779 | 4.03608 | 40874 ft | 371 kts | 154° |
| 2026-05-05 04:36 | 46.46314 | 4.07315 | 40879 ft | 369 kts | 154° |
| 2026-05-05 04:37 | 46.41862 | 4.11004 | 40878 ft | 369 kts | 154° |
| 2026-05-05 04:37 | 46.37423 | 4.14676 | 40880 ft | 370 kts | 154° |
| 2026-05-05 04:38 | 46.32935 | 4.18381 | 40900 ft | 372 kts | 154° |
| 2026-05-05 04:38 | 46.28439 | 4.22087 | 40894 ft | 372 kts | 155° |
| 2026-05-05 04:39 | 46.23955 | 4.25775 | 40873 ft | 368 kts | 155° |
| 2026-05-05 04:39 | 46.19508 | 4.29424 | 40875 ft | 367 kts | 155° |
| 2026-05-05 04:40 | 46.15059 | 4.33070 | 40901 ft | 367 kts | 155° |
| 2026-05-05 04:40 | 46.10635 | 4.36687 | 40888 ft | 369 kts | 155° |
| 2026-05-05 04:41 | 46.06164 | 4.40337 | 40897 ft | 370 kts | 155° |
| 2026-05-05 04:41 | 46.01673 | 4.43997 | 40903 ft | 370 kts | 155° |
| 2026-05-05 04:42 | 45.97198 | 4.47636 | 40907 ft | 369 kts | 155° |
| 2026-05-05 04:42 | 45.92730 | 4.51262 | 40905 ft | 369 kts | 155° |
| 2026-05-05 04:43 | 45.88259 | 4.54885 | 40904 ft | 369 kts | 155° |
| 2026-05-05 04:43 | 45.83790 | 4.58499 | 40904 ft | 368 kts | 155° |
| 2026-05-05 04:44 | 45.79348 | 4.62085 | 40900 ft | 367 kts | 155° |
| 2026-05-05 04:44 | 45.74894 | 4.65674 | 40897 ft | 367 kts | 155° |
| 2026-05-05 04:45 | 45.70467 | 4.69236 | 40901 ft | 366 kts | 154° |
| 2026-05-05 04:45 | 45.66128 | 4.72784 | 40877 ft | 353 kts | 154° |
| 2026-05-05 04:46 | 45.61917 | 4.76130 | 40873 ft | 340 kts | 154° |
| 2026-05-05 04:46 | 45.59868 | 4.77768 | 40761 ft | 333 kts | 156° |
| 2026-05-05 04:46 | 45.57843 | 4.79286 | 40489 ft | 325 kts | 159° |
| 2026-05-05 04:46 | 45.55805 | 4.80666 | 40042 ft | 324 kts | 161° |
| 2026-05-05 04:47 | 45.53733 | 4.81926 | 39547 ft | 323 kts | 163° |
| 2026-05-05 04:47 | 45.51653 | 4.83086 | 39249 ft | 317 kts | 165° |
| 2026-05-05 04:47 | 45.49615 | 4.84168 | 39041 ft | 309 kts | 165° |
| 2026-05-05 04:47 | 45.47611 | 4.85210 | 38704 ft | 306 kts | 165° |
| 2026-05-05 04:48 | 45.45607 | 4.86243 | 38192 ft | 306 kts | 166° |
| 2026-05-05 04:48 | 45.43613 | 4.87260 | 37777 ft | 302 kts | 166° |
| 2026-05-05 04:48 | 45.41680 | 4.88239 | 37533 ft | 295 kts | 166° |
| 2026-05-05 04:48 | 45.39767 | 4.89205 | 37195 ft | 290 kts | 166° |
| 2026-05-05 04:49 | 45.37867 | 4.90152 | 36727 ft | 289 kts | 166° |
| 2026-05-05 04:49 | 45.35969 | 4.91083 | 36307 ft | 287 kts | 166° |
| 2026-05-05 04:49 | 45.34095 | 4.91989 | 36023 ft | 281 kts | 166° |
| 2026-05-05 04:49 | 45.32265 | 4.92865 | 35729 ft | 275 kts | 166° |
| 2026-05-05 04:50 | 45.30456 | 4.93721 | 35328 ft | 274 kts | 166° |
| 2026-05-05 04:50 | 45.28648 | 4.94562 | 34944 ft | 272 kts | 166° |
| 2026-05-05 04:50 | 45.26862 | 4.95381 | 34623 ft | 268 kts | 166° |
| 2026-05-05 04:50 | 45.25098 | 4.96196 | 34251 ft | 266 kts | 166° |
| 2026-05-05 04:51 | 45.23332 | 4.97007 | 33872 ft | 265 kts | 166° |
| 2026-05-05 04:51 | 45.21587 | 4.97799 | 33494 ft | 262 kts | 166° |
| 2026-05-05 04:51 | 45.19858 | 4.98574 | 33145 ft | 258 kts | 166° |
| 2026-05-05 04:51 | 45.18144 | 4.99333 | 32718 ft | 257 kts | 166° |
| 2026-05-05 04:52 | 45.16439 | 5.00078 | 32279 ft | 256 kts | 166° |
| 2026-05-05 04:52 | 45.14738 | 5.00798 | 31911 ft | 253 kts | 166° |
| 2026-05-05 04:52 | 45.13052 | 5.01495 | 31575 ft | 250 kts | 166° |
| 2026-05-05 04:52 | 45.11383 | 5.02180 | 31204 ft | 249 kts | 166° |
| 2026-05-05 04:53 | 45.09735 | 5.02849 | 30827 ft | 249 kts | 166° |
| 2026-05-05 04:53 | 45.08068 | 5.03517 | 30493 ft | 247 kts | 166° |
| 2026-05-05 04:53 | 45.06418 | 5.04184 | 30163 ft | 246 kts | 166° |
| 2026-05-05 04:53 | 45.04770 | 5.04854 | 29742 ft | 246 kts | 166° |
| 2026-05-05 04:54 | 45.03127 | 5.05521 | 29344 ft | 245 kts | 166° |
| 2026-05-05 04:54 | 45.01495 | 5.06185 | 28998 ft | 242 kts | 166° |
| 2026-05-05 04:54 | 44.99882 | 5.06847 | 28596 ft | 241 kts | 166° |
| 2026-05-05 04:54 | 44.98274 | 5.07511 | 28180 ft | 240 kts | 166° |
| 2026-05-05 04:55 | 44.96672 | 5.08173 | 27808 ft | 239 kts | 166° |
| 2026-05-05 04:55 | 44.95083 | 5.08832 | 27461 ft | 237 kts | 166° |
| 2026-05-05 04:55 | 44.93505 | 5.09490 | 27091 ft | 236 kts | 166° |
| 2026-05-05 04:55 | 44.91955 | 5.10138 | 26720 ft | 235 kts | 166° |
| 2026-05-05 04:56 | 44.90390 | 5.10795 | 26357 ft | 234 kts | 166° |
| 2026-05-05 04:56 | 44.88832 | 5.11452 | 26013 ft | 233 kts | 166° |
| 2026-05-05 04:56 | 44.87279 | 5.12116 | 25653 ft | 234 kts | 166° |
| 2026-05-05 04:56 | 44.85698 | 5.12822 | 25165 ft | 240 kts | 166° |
| 2026-05-05 04:57 | 44.84113 | 5.13536 | 24903 ft | 236 kts | 166° |
| 2026-05-05 04:57 | 44.82569 | 5.14235 | 24701 ft | 230 kts | 166° |
| 2026-05-05 04:57 | 44.81046 | 5.14923 | 24337 ft | 231 kts | 166° |
| 2026-05-05 04:57 | 44.79495 | 5.15607 | 23940 ft | 235 kts | 166° |
| 2026-05-05 04:58 | 44.77945 | 5.16284 | 23679 ft | 231 kts | 166° |
| 2026-05-05 04:58 | 44.76423 | 5.16948 | 23431 ft | 227 kts | 166° |
| 2026-05-05 04:58 | 44.74915 | 5.17604 | 23018 ft | 229 kts | 166° |
| 2026-05-05 04:58 | 44.73387 | 5.18267 | 22616 ft | 230 kts | 166° |
| 2026-05-05 04:59 | 44.71871 | 5.18930 | 22339 ft | 226 kts | 166° |
| 2026-05-05 04:59 | 44.70382 | 5.19589 | 22051 ft | 223 kts | 166° |
| 2026-05-05 04:59 | 44.68895 | 5.20248 | 21664 ft | 225 kts | 166° |
| 2026-05-05 04:59 | 44.67402 | 5.20908 | 21282 ft | 225 kts | 166° |
| 2026-05-05 05:00 | 44.65916 | 5.21574 | 21008 ft | 222 kts | 166° |
| 2026-05-05 05:00 | 44.64453 | 5.22239 | 20710 ft | 220 kts | 166° |
| 2026-05-05 05:00 | 44.62997 | 5.22904 | 20352 ft | 221 kts | 166° |
| 2026-05-05 05:00 | 44.61551 | 5.23568 | 20019 ft | 221 kts | 166° |
| 2026-05-05 05:01 | 44.60098 | 5.24232 | 19743 ft | 218 kts | 166° |
| 2026-05-05 05:01 | 44.58641 | 5.24893 | 19428 ft | 217 kts | 166° |
| 2026-05-05 05:01 | 44.57213 | 5.25535 | 19084 ft | 218 kts | 166° |
| 2026-05-05 05:01 | 44.55765 | 5.26182 | 18773 ft | 217 kts | 166° |
| 2026-05-05 05:02 | 44.54332 | 5.26823 | 18504 ft | 215 kts | 166° |
| 2026-05-05 05:02 | 44.52907 | 5.27465 | 18183 ft | 215 kts | 166° |
| 2026-05-05 05:02 | 44.51475 | 5.28111 | 17824 ft | 216 kts | 166° |
| 2026-05-05 05:02 | 44.50055 | 5.28760 | 17551 ft | 213 kts | 166° |
| 2026-05-05 05:03 | 44.48655 | 5.29408 | 17229 ft | 211 kts | 166° |
| 2026-05-05 05:03 | 44.47262 | 5.30060 | 16796 ft | 216 kts | 166° |
| 2026-05-05 05:03 | 44.45835 | 5.30728 | 16489 ft | 215 kts | 166° |
| 2026-05-05 05:03 | 44.44434 | 5.31392 | 16246 ft | 210 kts | 166° |
| 2026-05-05 05:04 | 44.43052 | 5.32046 | 15936 ft | 210 kts | 166° |
| 2026-05-05 05:04 | 44.41659 | 5.32695 | 15596 ft | 212 kts | 166° |
| 2026-05-05 05:04 | 44.40262 | 5.33336 | 15311 ft | 209 kts | 166° |
| 2026-05-05 05:04 | 44.38898 | 5.33959 | 15086 ft | 203 kts | 166° |
| 2026-05-05 05:05 | 44.37550 | 5.34572 | 14737 ft | 205 kts | 165° |
| 2026-05-05 05:05 | 44.36181 | 5.35219 | 14424 ft | 207 kts | 165° |
| 2026-05-05 05:05 | 44.34846 | 5.35876 | 14281 ft | 200 kts | 165° |
| 2026-05-05 05:05 | 44.33536 | 5.36530 | 14021 ft | 200 kts | 164° |
| 2026-05-05 05:06 | 44.32208 | 5.37194 | 13645 ft | 204 kts | 165° |
| 2026-05-05 05:06 | 44.30875 | 5.37868 | 13360 ft | 202 kts | 164° |
| 2026-05-05 05:06 | 44.29568 | 5.38529 | 13163 ft | 197 kts | 164° |
| 2026-05-05 05:06 | 44.28300 | 5.39175 | 12798 ft | 198 kts | 164° |
| 2026-05-05 05:07 | 44.26989 | 5.39840 | 12389 ft | 201 kts | 165° |
| 2026-05-05 05:07 | 44.25678 | 5.40479 | 12116 ft | 197 kts | 165° |
| 2026-05-05 05:07 | 44.24395 | 5.41100 | 11885 ft | 194 kts | 165° |
| 2026-05-05 05:07 | 44.23529 | 5.41523 | 11676 ft | 195 kts | 165° |
| 2026-05-05 05:08 | 44.21828 | 5.42349 | 11265 ft | 195 kts | 165° |
| 2026-05-05 05:08 | 44.20546 | 5.42961 | 11027 ft | 193 kts | 165° |
| 2026-05-05 05:08 | 44.19286 | 5.43557 | 10814 ft | 190 kts | 165° |
| 2026-05-05 05:08 | 44.18028 | 5.44147 | 10547 ft | 191 kts | 165° |
| 2026-05-05 05:09 | 44.16771 | 5.44737 | 10303 ft | 190 kts | 165° |
| 2026-05-05 05:09 | 44.15524 | 5.45308 | 10075 ft | 187 kts | 165° |
| 2026-05-05 05:09 | 44.14276 | 5.45838 | 9804 ft | 188 kts | 166° |
| 2026-05-05 05:09 | 44.13017 | 5.46354 | 9532 ft | 188 kts | 166° |
| 2026-05-05 05:10 | 44.12192 | 5.46690 | 9396 ft | 185 kts | 166° |
| 2026-05-05 05:10 | 44.10541 | 5.47363 | 9004 ft | 186 kts | 166° |
| 2026-05-05 05:10 | 44.09720 | 5.47702 | 8820 ft | 186 kts | 166° |
| 2026-05-05 05:10 | 44.08485 | 5.48219 | 8531 ft | 185 kts | 166° |
| 2026-05-05 05:11 | 44.07248 | 5.48746 | 8243 ft | 187 kts | 166° |
| 2026-05-05 05:11 | 44.06017 | 5.49278 | 8036 ft | 183 kts | 166° |
| 2026-05-05 05:11 | 44.04417 | 5.49968 | 7708 ft | 181 kts | 166° |
| 2026-05-05 05:11 | 44.03600 | 5.50312 | 7502 ft | 182 kts | 166° |
| 2026-05-05 05:12 | 44.02402 | 5.50804 | 7272 ft | 180 kts | 166° |
| 2026-05-05 05:12 | 44.01198 | 5.51293 | 7061 ft | 177 kts | 166° |
| 2026-05-05 05:12 | 44.00027 | 5.51768 | 6760 ft | 178 kts | 166° |
| 2026-05-05 05:12 | 43.98827 | 5.52249 | 6467 ft | 179 kts | 166° |
| 2026-05-05 05:13 | 43.97626 | 5.52718 | 6213 ft | 179 kts | 166° |
| 2026-05-05 05:13 | 43.96430 | 5.53188 | 6005 ft | 177 kts | 166° |
| 2026-05-05 05:13 | 43.95253 | 5.53651 | 5796 ft | 175 kts | 166° |
| 2026-05-05 05:13 | 43.94079 | 5.54092 | 5563 ft | 175 kts | 166° |
| 2026-05-05 05:14 | 43.92916 | 5.54514 | 5374 ft | 171 kts | 166° |
| 2026-05-05 05:14 | 43.91761 | 5.54922 | 5114 ft | 171 kts | 166° |
| 2026-05-05 05:14 | 43.90588 | 5.55329 | 4820 ft | 175 kts | 166° |
| 2026-05-05 05:14 | 43.89428 | 5.55727 | 4690 ft | 169 kts | 166° |
| 2026-05-05 05:15 | 43.88278 | 5.56142 | 4367 ft | 173 kts | 166° |
| 2026-05-05 05:15 | 43.87092 | 5.56572 | 4073 ft | 176 kts | 166° |
| 2026-05-05 05:15 | 43.85926 | 5.56972 | 3941 ft | 169 kts | 166° |
| 2026-05-05 05:15 | 43.84779 | 5.57362 | 3633 ft | 172 kts | 166° |
| 2026-05-05 05:16 | 43.83612 | 5.57743 | 3365 ft | 173 kts | 166° |
| 2026-05-05 05:16 | 43.82454 | 5.58040 | 3309 ft | 164 kts | 174° |
| 2026-05-05 05:16 | 43.81294 | 5.58009 | 3006 ft | 172 kts | 182° |
| 2026-05-05 05:16 | 43.80100 | 5.57799 | 2731 ft | 177 kts | 185° |
| 2026-05-05 05:17 | 43.78892 | 5.57548 | 2602 ft | 172 kts | 185° |
| 2026-05-05 05:17 | 43.77720 | 5.57297 | 2290 ft | 173 kts | 186° |
| 2026-05-05 05:17 | 43.76474 | 5.57053 | 1748 ft | 187 kts | 186° |
| 2026-05-05 05:17 | 43.75194 | 5.56839 | 1625 ft | 179 kts | 185° |
| 2026-05-05 05:18 | 43.73985 | 5.56648 | 1458 ft | 175 kts | 185° |
| 2026-05-05 05:18 | 43.72749 | 5.56476 | 1095 ft | 182 kts | 184° |
| 2026-05-05 05:18 | 43.70855 | 5.56247 | 2079 ft | 425 kts | 184° |
| 2026-05-05 05:18 | 43.68556 | 5.55986 | 5831 ft | 249 kts | 186° |
| 2026-05-05 05:19 | 43.67154 | 5.55889 | 7821 ft | 175 kts | 187° |
| 2026-05-05 05:19 | 43.65862 | 5.55812 | 6258 ft | 213 kts | 186° |
| 2026-05-05 05:19 | 43.64020 | 5.55613 | 2372 ft | 321 kts | 185° |
| 2026-05-05 05:19 | 43.61264 | 5.55171 | 3305 ft | 356 kts | 187° |
| 2026-05-05 05:20 | 43.59358 | 5.54914 | 6918 ft | 210 kts | 188° |
| 2026-05-05 05:20 | 43.58072 | 5.54818 | 7647 ft | 179 kts | 187° |
| 2026-05-05 05:20 | 43.56629 | 5.54704 | 4918 ft | 252 kts | 186° |
| 2026-05-05 05:20 | 43.54635 | 5.54428 | 1880 ft | 447 kts | 186° |
| 2026-05-05 05:21 | 43.52026 | 5.53997 | 4712 ft | 297 kts | 187° |
| 2026-05-05 05:21 | 43.50392 | 5.53790 | 7395 ft | 193 kts | 188° |
| 2026-05-05 05:21 | 43.49089 | 5.53686 | 6865 ft | 200 kts | 188° |
| 2026-05-05 05:21 | 43.47407 | 5.53520 | 3561 ft | 293 kts | 186° |
| 2026-05-05 05:22 | 43.44843 | 5.53113 | 2180 ft | 412 kts | 187° |
| 2026-05-05 05:22 | 43.42576 | 5.52753 | 5487 ft | 256 kts | 188° |
| 2026-05-05 05:22 | 43.41092 | 5.52596 | 7114 ft | 190 kts | 188° |
| 2026-05-05 05:22 | 43.39723 | 5.52425 | 5103 ft | 222 kts | 193° |
| 2026-05-05 05:23 | 43.38345 | 5.51723 | 2187 ft | 445 kts | 206° |
| 2026-05-05 05:23 | 43.35961 | 5.50090 | 4936 ft | 301 kts | 207° |
| 2026-05-05 05:23 | 43.34454 | 5.49087 | 7575 ft | 198 kts | 208° |
| 2026-05-05 05:23 | 43.33253 | 5.48325 | 7170 ft | 199 kts | 208° |
| 2026-05-05 05:24 | 43.31762 | 5.47355 | 4019 ft | 285 kts | 207° |
| 2026-05-05 05:24 | 43.29701 | 5.45883 | 657 ft | 372 kts | 208° |
| 2026-05-05 05:24 | 43.27489 | 5.44268 | 2411 ft | 350 kts | 208° |
| 2026-05-05 05:24 | 43.25810 | 5.43085 | 5864 ft | 208 kts | 209° |
| 2026-05-05 05:25 | 43.24652 | 5.42337 | 6556 ft | 178 kts | 209° |
| 2026-05-05 05:25 | 43.23355 | 5.41494 | 3866 ft | 250 kts | 208° |
| 2026-05-05 05:25 | 43.21026 | 5.39831 | 1895 ft | 416 kts | 208° |
| 2026-05-05 05:25 | 43.19011 | 5.38375 | 5191 ft | 258 kts | 210° |
| 2026-05-05 05:26 | 43.17668 | 5.37464 | 6993 ft | 187 kts | 210° |
| 2026-05-05 05:26 | 43.16459 | 5.36669 | 5548 ft | 219 kts | 209° |
| 2026-05-05 05:26 | 43.14806 | 5.35519 | 2062 ft | 316 kts | 208° |
| 2026-05-05 05:26 | 43.12548 | 5.33845 | 1148 ft | 416 kts | 209° |
| 2026-05-05 05:27 | 43.10555 | 5.32372 | 4735 ft | 247 kts | 210° |
| 2026-05-05 05:27 | 43.09288 | 5.31521 | 6508 ft | 178 kts | 211° |
| 2026-05-05 05:27 | 43.06442 | 5.29590 | 1151 ft | 322 kts | 210° |
| 2026-05-05 05:28 | 43.04119 | 5.27877 | 2246 ft | 355 kts | 210° |
| 2026-05-05 05:28 | 43.02398 | 5.26675 | 5643 ft | 214 kts | 210° |
| 2026-05-05 05:28 | 43.01229 | 5.25922 | 6398 ft | 180 kts | 210° |
| 2026-05-05 05:28 | 42.99916 | 5.25065 | 3822 ft | 249 kts | 210° |
| 2026-05-05 05:29 | 42.98043 | 5.23748 | 56 ft | 352 kts | 210° |
| 2026-05-05 05:29 | 42.96370 | 5.22539 | 2214 ft | 355 kts | 210° |
| 2026-05-05 05:29 | 42.94655 | 5.21343 | 5621 ft | 213 kts | 210° |
| 2026-05-05 05:29 | 42.93481 | 5.20576 | 6366 ft | 180 kts | 211° |
| 2026-05-05 05:30 | 42.92187 | 5.19712 | 3746 ft | 249 kts | 210° |
| 2026-05-05 05:30 | 42.90367 | 5.18410 | 688 ft | 454 kts | 211° |
| 2026-05-05 05:30 | 42.88013 | 5.16683 | 3574 ft | 298 kts | 210° |
| 2026-05-05 05:30 | 42.86583 | 5.15694 | 6444 ft | 186 kts | 211° |
| 2026-05-05 05:31 | 42.85466 | 5.14958 | 6055 ft | 188 kts | 211° |
| 2026-05-05 05:31 | 42.84035 | 5.13969 | 2680 ft | 283 kts | 211° |
| 2026-05-05 05:31 | 42.82012 | 5.12494 | 790 ft | 328 kts | 210° |
| 2026-05-05 05:31 | 42.80148 | 5.11134 | 1209 ft | 283 kts | 211° |
| 2026-05-05 05:32 | 42.78484 | 5.09943 | 1182 ft | 260 kts | 211° |
| 2026-05-05 05:32 | 42.76872 | 5.08796 | 388 ft | 268 kts | 211° |
| 2026-05-05 05:32 | 42.74679 | 5.07180 | 2277 ft | 350 kts | 211° |
| 2026-05-05 05:32 | 42.72978 | 5.05979 | 5524 ft | 214 kts | 211° |
| 2026-05-05 05:33 | 42.71785 | 5.05193 | 6149 ft | 184 kts | 210° |
| 2026-05-05 05:33 | 42.70463 | 5.04305 | 3552 ft | 254 kts | 210° |
| 2026-05-05 05:33 | 42.68660 | 5.03022 | 687 ft | 453 kts | 210° |
| 2026-05-05 05:33 | 42.66297 | 5.01318 | 3557 ft | 299 kts | 210° |
| 2026-05-05 05:34 | 42.64852 | 5.00335 | 6367 ft | 189 kts | 210° |
| 2026-05-05 05:34 | 42.63713 | 4.99594 | 5975 ft | 191 kts | 210° |
| 2026-05-05 05:34 | 42.62270 | 4.98610 | 2669 ft | 284 kts | 211° |
| 2026-05-05 05:34 | 42.60021 | 4.96985 | 1114 ft | 424 kts | 210° |
| 2026-05-05 05:35 | 42.57982 | 4.95522 | 4721 ft | 252 kts | 211° |
| 2026-05-05 05:35 | 42.56702 | 4.94665 | 6666 ft | 177 kts | 211° |
| 2026-05-05 05:35 | 42.55535 | 4.93898 | 5148 ft | 212 kts | 211° |
| 2026-05-05 05:35 | 42.53907 | 4.92761 | 1426 ft | 317 kts | 211° |
| 2026-05-05 05:36 | 42.51487 | 4.91000 | 2179 ft | 358 kts | 211° |
| 2026-05-05 05:36 | 42.49746 | 4.89771 | 5496 ft | 218 kts | 211° |
| 2026-05-05 05:36 | 42.48553 | 4.88978 | 6327 ft | 182 kts | 211° |
| 2026-05-05 05:36 | 42.47269 | 4.88107 | 3873 ft | 246 kts | 211° |
| 2026-05-05 05:37 | 42.45440 | 4.86778 | 207 ft | 348 kts | 211° |
| 2026-05-05 05:37 | 42.43613 | 4.85410 | 2373 ft | 353 kts | 212° |
| 2026-05-05 05:37 | 42.41937 | 4.84226 | 5849 ft | 211 kts | 211° |
| 2026-05-05 05:37 | 42.40789 | 4.83469 | 6660 ft | 175 kts | 211° |
| 2026-05-05 05:38 | 42.39533 | 4.82622 | 4070 ft | 244 kts | 211° |
| 2026-05-05 05:38 | 42.37600 | 4.81217 | 689 ft | 451 kts | 211° |
| 2026-05-05 05:38 | 42.35266 | 4.79511 | 3449 ft | 303 kts | 210° |
| 2026-05-05 05:38 | 42.33789 | 4.78476 | 6245 ft | 192 kts | 211° |
| 2026-05-05 05:39 | 42.32647 | 4.77715 | 5938 ft | 191 kts | 211° |
| 2026-05-05 05:39 | 42.31227 | 4.76719 | 2755 ft | 280 kts | 211° |
| 2026-05-05 05:39 | 42.28973 | 4.75021 | 1099 ft | 425 kts | 211° |
| 2026-05-05 05:39 | 42.26939 | 4.73478 | 4650 ft | 255 kts | 212° |
| 2026-05-05 05:40 | 42.25666 | 4.72573 | 6625 ft | 178 kts | 212° |
| 2026-05-05 05:40 | 42.24515 | 4.71782 | 5232 ft | 209 kts | 212° |
| 2026-05-05 05:40 | 42.22932 | 4.70605 | 1563 ft | 313 kts | 212° |
| 2026-05-05 05:40 | 42.21250 | 4.69297 | 1091 ft | 425 kts | 212° |
| 2026-05-05 05:41 | 42.19236 | 4.67729 | 4634 ft | 254 kts | 212° |
| 2026-05-05 05:41 | 42.17979 | 4.66803 | 6589 ft | 178 kts | 213° |
| 2026-05-05 05:41 | 42.16842 | 4.65981 | 5180 ft | 209 kts | 213° |
| 2026-05-05 05:41 | 42.15279 | 4.64766 | 1489 ft | 313 kts | 214° |
| 2026-05-05 05:42 | 42.13176 | 4.63084 | 1007 ft | 322 kts | 214° |
| 2026-05-05 05:42 | 42.11378 | 4.61692 | 1450 ft | 278 kts | 212° |
| 2026-05-05 05:42 | 42.09768 | 4.60444 | 1229 ft | 263 kts | 212° |
| 2026-05-05 05:42 | 42.08052 | 4.59081 | 672 ft | 454 kts | 213° |
| 2026-05-05 05:43 | 42.05792 | 4.57230 | 3411 ft | 305 kts | 212° |
| 2026-05-05 05:43 | 42.04357 | 4.56087 | 6250 ft | 192 kts | 214° |
| 2026-05-05 05:43 | 42.03259 | 4.55258 | 6047 ft | 187 kts | 214° |
| 2026-05-05 05:43 | 42.01909 | 4.54188 | 2926 ft | 275 kts | 214° |
| 2026-05-05 05:44 | 42.00485 | 4.52990 | 689 ft | 456 kts | 214° |
| 2026-05-05 05:44 | 41.98213 | 4.51056 | 3453 ft | 306 kts | 213° |
| 2026-05-05 05:44 | 41.96789 | 4.49870 | 6255 ft | 193 kts | 215° |
| 2026-05-05 05:44 | 41.95695 | 4.49006 | 6053 ft | 188 kts | 215° |
| 2026-05-05 05:45 | 41.94360 | 4.47902 | 2960 ft | 275 kts | 214° |
| 2026-05-05 05:45 | 41.92098 | 4.45910 | 1083 ft | 424 kts | 215° |
| 2026-05-05 05:45 | 41.90126 | 4.44192 | 4486 ft | 260 kts | 214° |
| 2026-05-05 05:45 | 41.88878 | 4.43154 | 6477 ft | 181 kts | 216° |
| 2026-05-05 05:46 | 41.87766 | 4.42256 | 5208 ft | 208 kts | 216° |
| 2026-05-05 05:46 | 41.86271 | 4.40960 | 1718 ft | 308 kts | 215° |
| 2026-05-05 05:46 | 41.84573 | 4.39395 | 1095 ft | 425 kts | 215° |
| 2026-05-05 05:46 | 41.82635 | 4.37622 | 4550 ft | 259 kts | 216° |
| 2026-05-05 05:47 | 41.81406 | 4.36567 | 6557 ft | 179 kts | 216° |
| 2026-05-05 05:47 | 41.80312 | 4.35664 | 5275 ft | 207 kts | 216° |
| 2026-05-05 05:47 | 41.78830 | 4.34354 | 1730 ft | 308 kts | 215° |
| 2026-05-05 05:47 | 41.76390 | 4.32051 | 2216 ft | 360 kts | 216° |
| 2026-05-05 05:48 | 41.74787 | 4.30561 | 5530 ft | 219 kts | 217° |
| 2026-05-05 05:48 | 41.73682 | 4.29606 | 6510 ft | 177 kts | 217° |
| 2026-05-05 05:48 | 41.72516 | 4.28599 | 4222 ft | 237 kts | 216° |
| 2026-05-05 05:48 | 41.70858 | 4.27045 | 491 ft | 342 kts | 216° |
| 2026-05-05 05:49 | 41.69034 | 4.25280 | 2223 ft | 358 kts | 216° |
| 2026-05-05 05:49 | 41.67448 | 4.23787 | 5658 ft | 214 kts | 218° |
| 2026-05-05 05:49 | 41.66384 | 4.22858 | 6586 ft | 175 kts | 217° |
| 2026-05-05 05:49 | 41.65232 | 4.21848 | 4191 ft | 237 kts | 217° |
| 2026-05-05 05:50 | 41.63366 | 4.20074 | 689 ft | 456 kts | 216° |
| 2026-05-05 05:50 | 41.61278 | 4.18028 | 3379 ft | 305 kts | 217° |
| 2026-05-05 05:50 | 41.59926 | 4.16747 | 6353 ft | 188 kts | 218° |
| 2026-05-05 05:50 | 41.58905 | 4.15837 | 6198 ft | 183 kts | 218° |
| 2026-05-05 05:51 | 41.57638 | 4.14674 | 3018 ft | 272 kts | 216° |
| 2026-05-05 05:51 | 41.55474 | 4.12503 | 1107 ft | 420 kts | 217° |
| 2026-05-05 05:51 | 41.53647 | 4.10642 | 4614 ft | 252 kts | 219° |
| 2026-05-05 05:51 | 41.52491 | 4.09538 | 6549 ft | 176 kts | 219° |
| 2026-05-05 05:52 | 41.51816 | 4.08917 | 5956 ft | 187 kts | 219° |
| 2026-05-05 05:52 | 41.50540 | 4.07698 | 2785 ft | 276 kts | 217° |
| 2026-05-05 05:52 | 41.48504 | 4.05577 | 1100 ft | 421 kts | 219° |
| 2026-05-05 05:52 | 41.46694 | 4.03699 | 4713 ft | 249 kts | 219° |
| 2026-05-05 05:53 | 41.45563 | 4.02595 | 6657 ft | 174 kts | 219° |
| 2026-05-05 05:53 | 41.44530 | 4.01608 | 5147 ft | 209 kts | 219° |
| 2026-05-05 05:53 | 41.43081 | 4.00151 | 1414 ft | 315 kts | 219° |
| 2026-05-05 05:53 | 41.40929 | 3.97892 | 2150 ft | 354 kts | 219° |
| 2026-05-05 05:54 | 41.39406 | 3.96305 | 5471 ft | 214 kts | 220° |
| 2026-05-05 05:54 | 41.38360 | 3.95263 | 6288 ft | 179 kts | 220° |
| 2026-05-05 05:54 | 41.37229 | 3.94127 | 3798 ft | 244 kts | 220° |
| 2026-05-05 05:54 | 41.35574 | 3.92371 | 685 ft | 448 kts | 220° |
| 2026-05-05 05:55 | 41.33538 | 3.90170 | 3456 ft | 297 kts | 220° |
| 2026-05-05 05:55 | 41.32254 | 3.88843 | 6212 ft | 188 kts | 220° |
| 2026-05-05 05:55 | 41.31251 | 3.87851 | 5812 ft | 189 kts | 220° |
| 2026-05-05 05:55 | 41.29983 | 3.86560 | 2570 ft | 281 kts | 219° |
| 2026-05-05 05:56 | 41.28007 | 3.84423 | 1172 ft | 414 kts | 220° |
| 2026-05-05 05:56 | 41.26259 | 3.82533 | 4715 ft | 246 kts | 221° |
| 2026-05-05 05:56 | 41.25488 | 3.81736 | 6293 ft | 186 kts | 221° |
| 2026-05-05 05:56 | 41.24115 | 3.80348 | 4883 ft | 214 kts | 220° |
| 2026-05-05 05:57 | 41.23216 | 3.79411 | 2510 ft | 284 kts | 220° |
| 2026-05-05 05:57 | 41.21287 | 3.77324 | 1151 ft | 411 kts | 220° |
| 2026-05-05 05:57 | 41.19545 | 3.75444 | 4607 ft | 247 kts | 221° |
| 2026-05-05 05:57 | 41.18428 | 3.74296 | 6370 ft | 178 kts | 221° |
| 2026-05-05 05:58 | 41.17382 | 3.73238 | 4758 ft | 216 kts | 221° |
| 2026-05-05 05:58 | 41.15950 | 3.71723 | 1165 ft | 318 kts | 220° |
| 2026-05-05 05:58 | 41.13904 | 3.69474 | 2266 ft | 347 kts | 220° |
| 2026-05-05 05:58 | 41.12427 | 3.67894 | 5532 ft | 211 kts | 221° |
| 2026-05-05 05:59 | 41.11397 | 3.66843 | 6188 ft | 181 kts | 221° |
| 2026-05-05 05:59 | 41.10258 | 3.65670 | 3595 ft | 250 kts | 220° |
| 2026-05-05 05:59 | 41.08689 | 3.63977 | 687 ft | 445 kts | 220° |
| 2026-05-05 05:59 | 41.06683 | 3.61787 | 3389 ft | 297 kts | 221° |
| 2026-05-05 06:00 | 41.05410 | 3.60421 | 6051 ft | 191 kts | 221° |
| 2026-05-05 06:00 | 41.04413 | 3.59362 | 5587 ft | 194 kts | 221° |
| 2026-05-05 06:00 | 41.03150 | 3.57995 | 2374 ft | 284 kts | 221° |
| 2026-05-05 06:00 | 41.01311 | 3.55921 | 1115 ft | 415 kts | 221° |
| 2026-05-05 06:01 | 40.99606 | 3.53990 | 4597 ft | 249 kts | 222° |
| 2026-05-05 06:01 | 40.98514 | 3.52798 | 6436 ft | 177 kts | 221° |
| 2026-05-05 06:01 | 40.97503 | 3.51705 | 4857 ft | 214 kts | 222° |
| 2026-05-05 06:01 | 40.96085 | 3.50131 | 1174 ft | 319 kts | 221° |
| 2026-05-05 06:02 | 40.94039 | 3.47799 | 2319 ft | 346 kts | 221° |
| 2026-05-05 06:02 | 40.92606 | 3.46191 | 5658 ft | 208 kts | 222° |
| 2026-05-05 06:02 | 40.91618 | 3.45119 | 6297 ft | 178 kts | 222° |
| 2026-05-05 06:02 | 40.90509 | 3.43906 | 3619 ft | 250 kts | 222° |
| 2026-05-05 06:03 | 40.88918 | 3.42107 | 682 ft | 447 kts | 222° |
| 2026-05-05 06:03 | 40.86945 | 3.39849 | 3555 ft | 292 kts | 222° |
| 2026-05-05 06:03 | 40.85717 | 3.38473 | 6212 ft | 187 kts | 222° |
| 2026-05-05 06:03 | 40.84747 | 3.37398 | 5624 ft | 194 kts | 222° |
| 2026-05-05 06:04 | 40.83507 | 3.36006 | 2334 ft | 288 kts | 221° |
| 2026-05-05 06:04 | 40.81719 | 3.33938 | 1100 ft | 418 kts | 222° |
| 2026-05-05 06:04 | 40.80003 | 3.31956 | 4666 ft | 248 kts | 222° |
| 2026-05-05 06:04 | 40.78925 | 3.30753 | 6510 ft | 177 kts | 221° |
| 2026-05-05 06:05 | 40.77926 | 3.29644 | 4896 ft | 215 kts | 222° |
| 2026-05-05 06:05 | 40.76512 | 3.28056 | 1166 ft | 320 kts | 221° |
| 2026-05-05 06:05 | 40.74503 | 3.25755 | 2247 ft | 351 kts | 221° |
| 2026-05-05 06:05 | 40.73065 | 3.24123 | 5621 ft | 211 kts | 222° |
| 2026-05-05 06:06 | 40.72075 | 3.23024 | 6300 ft | 179 kts | 221° |
| 2026-05-05 06:06 | 40.70973 | 3.21794 | 3645 ft | 250 kts | 222° |
| 2026-05-05 06:06 | 40.69437 | 3.20046 | 683 ft | 450 kts | 221° |
| 2026-05-05 06:06 | 40.67454 | 3.17778 | 3542 ft | 295 kts | 222° |
| 2026-05-05 06:07 | 40.66223 | 3.16397 | 6319 ft | 187 kts | 221° |
| 2026-05-05 06:07 | 40.65266 | 3.15335 | 5833 ft | 191 kts | 221° |
| 2026-05-05 06:07 | 40.64022 | 3.13949 | 2481 ft | 286 kts | 221° |
| 2026-05-05 06:07 | 40.62190 | 3.11870 | 1074 ft | 419 kts | 222° |
| 2026-05-05 06:08 | 40.60460 | 3.09897 | 4578 ft | 251 kts | 222° |
| 2026-05-05 06:08 | 40.59372 | 3.08686 | 6422 ft | 179 kts | 221° |
| 2026-05-05 06:08 | 40.58369 | 3.07571 | 4865 ft | 215 kts | 222° |
| 2026-05-05 06:08 | 40.56965 | 3.05989 | 1191 ft | 319 kts | 221° |
| 2026-05-05 06:09 | 40.54987 | 3.03723 | 2162 ft | 355 kts | 221° |
| 2026-05-05 06:09 | 40.53528 | 3.02050 | 5485 ft | 215 kts | 222° |
| 2026-05-05 06:09 | 40.52530 | 3.00917 | 6209 ft | 182 kts | 222° |
| 2026-05-05 06:09 | 40.51436 | 2.99667 | 3655 ft | 250 kts | 222° |
| 2026-05-05 06:10 | 40.50446 | 2.98526 | 1143 ft | 320 kts | 222° |
| 2026-05-05 06:10 | 40.48487 | 2.96256 | 2200 ft | 352 kts | 222° |
| 2026-05-05 06:10 | 40.47045 | 2.94585 | 5517 ft | 214 kts | 223° |
| 2026-05-05 06:10 | 40.46055 | 2.93447 | 6199 ft | 182 kts | 222° |
| 2026-05-05 06:11 | 40.44961 | 2.92185 | 3608 ft | 252 kts | 223° |
| 2026-05-05 06:11 | 40.43438 | 2.90407 | 684 ft | 447 kts | 223° |
| 2026-05-05 06:11 | 40.41480 | 2.88105 | 3476 ft | 296 kts | 222° |
| 2026-05-05 06:11 | 40.40261 | 2.86701 | 6159 ft | 190 kts | 222° |
| 2026-05-05 06:12 | 40.39298 | 2.85594 | 5625 ft | 195 kts | 221° |
| 2026-05-05 06:12 | 40.38061 | 2.84166 | 2332 ft | 288 kts | 222° |
| 2026-05-05 06:12 | 40.36276 | 2.82120 | 1116 ft | 418 kts | 221° |
| 2026-05-05 06:12 | 40.34562 | 2.80173 | 4692 ft | 247 kts | 221° |
| 2026-05-05 06:13 | 40.33497 | 2.78969 | 6511 ft | 177 kts | 221° |
| 2026-05-05 06:13 | 40.32505 | 2.77845 | 4843 ft | 217 kts | 221° |
| 2026-05-05 06:13 | 40.31088 | 2.76235 | 1086 ft | 323 kts | 222° |
| 2026-05-05 06:13 | 40.29137 | 2.74031 | 2157 ft | 352 kts | 221° |
| 2026-05-05 06:14 | 40.27670 | 2.72397 | 5420 ft | 215 kts | 220° |
| 2026-05-05 06:14 | 40.26660 | 2.71284 | 6093 ft | 184 kts | 220° |
| 2026-05-05 06:14 | 40.25536 | 2.70038 | 3516 ft | 254 kts | 221° |
| 2026-05-05 06:14 | 40.23976 | 2.68315 | 684 ft | 444 kts | 220° |
| 2026-05-05 06:15 | 40.21979 | 2.66119 | 3406 ft | 297 kts | 220° |
| 2026-05-05 06:15 | 40.20721 | 2.64724 | 5957 ft | 194 kts | 220° |
| 2026-05-05 06:15 | 40.19717 | 2.63610 | 5405 ft | 200 kts | 220° |
| 2026-05-05 06:15 | 40.18442 | 2.62181 | 2164 ft | 291 kts | 221° |
| 2026-05-05 06:16 | 40.16632 | 2.60158 | 1147 ft | 411 kts | 221° |
| 2026-05-05 06:16 | 40.14925 | 2.58243 | 4588 ft | 248 kts | 220° |
| 2026-05-05 06:16 | 40.13841 | 2.57019 | 6219 ft | 183 kts | 221° |
| 2026-05-05 06:16 | 40.12812 | 2.55854 | 4506 ft | 225 kts | 220° |
| 2026-05-05 06:17 | 40.11370 | 2.54201 | 862 ft | 327 kts | 221° |
| 2026-05-05 06:17 | 40.09489 | 2.52020 | 2348 ft | 345 kts | 221° |
| 2026-05-05 06:17 | 40.08085 | 2.50391 | 5661 ft | 209 kts | 221° |
| 2026-05-05 06:17 | 40.07112 | 2.49270 | 6202 ft | 183 kts | 222° |
| 2026-05-05 06:18 | 40.06002 | 2.47989 | 3464 ft | 257 kts | 221° |
| 2026-05-05 06:18 | 40.04523 | 2.46272 | 677 ft | 444 kts | 222° |
| 2026-05-05 06:18 | 40.02571 | 2.43970 | 3524 ft | 292 kts | 222° |
| 2026-05-05 06:18 | 40.01370 | 2.42557 | 6066 ft | 191 kts | 222° |
| 2026-05-05 06:19 | 40.00405 | 2.41427 | 5401 ft | 200 kts | 222° |
| 2026-05-05 06:19 | 39.99153 | 2.39948 | 2065 ft | 294 kts | 222° |
| 2026-05-05 06:19 | 39.96846 | 2.37189 | 2218 ft | 350 kts | 222° |
| 2026-05-05 06:19 | 39.95440 | 2.35509 | 5530 ft | 213 kts | 223° |
| 2026-05-05 06:20 | 39.94468 | 2.34355 | 6106 ft | 184 kts | 223° |
| 2026-05-05 06:20 | 39.93373 | 2.33054 | 3455 ft | 257 kts | 222° |
| 2026-05-05 06:20 | 39.91921 | 2.31306 | 682 ft | 444 kts | 223° |
| 2026-05-05 06:20 | 39.90000 | 2.28994 | 3409 ft | 298 kts | 223° |
| 2026-05-05 06:21 | 39.88795 | 2.27529 | 6008 ft | 193 kts | 223° |
| 2026-05-05 06:21 | 39.87842 | 2.26373 | 5493 ft | 198 kts | 223° |
| 2026-05-05 06:21 | 39.86632 | 2.24890 | 2259 ft | 290 kts | 223° |
| 2026-05-05 06:21 | 39.84876 | 2.22710 | 1175 ft | 413 kts | 223° |
| 2026-05-05 06:22 | 39.83245 | 2.20686 | 4673 ft | 248 kts | 224° |
| 2026-05-05 06:22 | 39.82206 | 2.19402 | 6363 ft | 182 kts | 224° |
| 2026-05-05 06:22 | 39.81230 | 2.18202 | 4689 ft | 221 kts | 224° |
| 2026-05-05 06:22 | 39.79861 | 2.16488 | 1040 ft | 325 kts | 223° |
| 2026-05-05 06:23 | 39.78046 | 2.14163 | 2215 ft | 351 kts | 224° |
| 2026-05-05 06:23 | 39.76690 | 2.12408 | 5477 ft | 214 kts | 225° |
| 2026-05-05 06:23 | 39.75741 | 2.11201 | 6063 ft | 186 kts | 225° |
| 2026-05-05 06:23 | 39.74673 | 2.09836 | 3371 ft | 259 kts | 224° |
| 2026-05-05 06:24 | 39.73329 | 2.08056 | 683 ft | 452 kts | 225° |
| 2026-05-05 06:24 | 39.71489 | 2.05620 | 3523 ft | 297 kts | 225° |
| 2026-05-05 06:24 | 39.70355 | 2.04103 | 6306 ft | 189 kts | 226° |
| 2026-05-05 06:24 | 39.69460 | 2.02919 | 5743 ft | 195 kts | 226° |
| 2026-05-05 06:25 | 39.68300 | 2.01369 | 2343 ft | 291 kts | 225° |
| 2026-05-05 06:25 | 39.66694 | 1.99159 | 1074 ft | 420 kts | 226° |
| 2026-05-05 06:25 | 39.65135 | 1.96985 | 4532 ft | 252 kts | 227° |
| 2026-05-05 06:25 | 39.64149 | 1.95621 | 6341 ft | 182 kts | 227° |
| 2026-05-05 06:26 | 39.63225 | 1.94355 | 4690 ft | 221 kts | 227° |
| 2026-05-05 06:26 | 39.61937 | 1.92544 | 1003 ft | 325 kts | 226° |
| 2026-05-05 06:26 | 39.60265 | 1.90127 | 2141 ft | 356 kts | 227° |
| 2026-05-05 06:26 | 39.58961 | 1.88218 | 5270 ft | 223 kts | 229° |
| 2026-05-05 06:27 | 39.58045 | 1.86885 | 5931 ft | 191 kts | 229° |
| 2026-05-05 06:27 | 39.55655 | 1.83366 | 678 ft | 451 kts | 229° |
| 2026-05-05 06:27 | 39.53924 | 1.80754 | 3488 ft | 298 kts | 229° |
| 2026-05-05 06:28 | 39.52850 | 1.79118 | 6084 ft | 195 kts | 230° |
| 2026-05-05 06:28 | 39.51988 | 1.77817 | 5494 ft | 202 kts | 230° |
| 2026-05-05 06:28 | 39.50884 | 1.76136 | 2191 ft | 296 kts | 229° |
| 2026-05-05 06:28 | 39.49354 | 1.73750 | 1154 ft | 415 kts | 230° |
| 2026-05-05 06:29 | 39.47911 | 1.71493 | 4613 ft | 251 kts | 230° |
| 2026-05-05 06:29 | 39.46976 | 1.70051 | 6260 ft | 186 kts | 230° |
| 2026-05-05 06:29 | 39.46080 | 1.68684 | 4499 ft | 228 kts | 230° |
| 2026-05-05 06:29 | 39.44836 | 1.66757 | 873 ft | 331 kts | 230° |
| 2026-05-05 06:30 | 39.43261 | 1.64292 | 2214 ft | 355 kts | 230° |
| 2026-05-05 06:30 | 39.42031 | 1.62356 | 5512 ft | 217 kts | 231° |
| 2026-05-05 06:30 | 39.41174 | 1.61019 | 6165 ft | 187 kts | 230° |
| 2026-05-05 06:30 | 39.40221 | 1.59536 | 3527 ft | 257 kts | 230° |
| 2026-05-05 06:31 | 39.38954 | 1.57530 | 678 ft | 452 kts | 230° |
| 2026-05-05 06:31 | 39.37277 | 1.54869 | 3515 ft | 297 kts | 230° |
| 2026-05-05 06:31 | 39.36259 | 1.53239 | 6175 ft | 193 kts | 231° |
| 2026-05-05 06:31 | 39.35441 | 1.51936 | 5632 ft | 199 kts | 231° |
| 2026-05-05 06:32 | 39.34391 | 1.50248 | 2330 ft | 293 kts | 230° |
| 2026-05-05 06:32 | 39.32900 | 1.47838 | 1099 ft | 415 kts | 231° |
| 2026-05-05 06:32 | 39.31483 | 1.45541 | 4559 ft | 251 kts | 231° |
| 2026-05-05 06:32 | 39.30579 | 1.44070 | 6196 ft | 186 kts | 231° |
| 2026-05-05 06:33 | 39.29721 | 1.42675 | 4497 ft | 227 kts | 231° |
| 2026-05-05 06:33 | 39.28519 | 1.40721 | 820 ft | 329 kts | 231° |
| 2026-05-05 06:33 | 39.27001 | 1.38239 | 2218 ft | 354 kts | 231° |
| 2026-05-05 06:33 | 39.25811 | 1.36281 | 5554 ft | 216 kts | 231° |
| 2026-05-05 06:34 | 39.24998 | 1.34940 | 6185 ft | 186 kts | 231° |
| 2026-05-05 06:34 | 39.24083 | 1.33432 | 3573 ft | 256 kts | 231° |
| 2026-05-05 06:34 | 39.22819 | 1.31341 | 678 ft | 446 kts | 231° |